<?xml version="1.0" encoding="UTF-8" standalone="no" ?>
<gpx xmlns="http://www.topografix.com/GPX/1/1" xmlns:xsi="http://www.w3.org/2001/XMLSchema-instance" xsi:schemaLocation="http://www.topografix.com/GPX/1/1 http://www.topografix.com/GPX/1/1/gpx.xsd" version="1.1" creator="VisuGPX - https://www.visugpx.com">
  <metadata>
    <name>Gordes cabanne chasseurs</name>
    <desc><![CDATA[Repas début année à la cabane des chasseurs.
* l\'heure arrivée ne tient pas compte de la durée d\'arrêt de midi !
Bernard
]]></desc>
  </metadata>
  <trk>
    <name><![CDATA[Gordes cabanne chasseurs_1]]></name>
    <trkseg>
      <trkpt lat="43.93103" lon="5.18909">
        <ele>372</ele>
        <time>2011-01-14T09:15:37Z</time>
      </trkpt>
      <trkpt lat="43.9313" lon="5.18909">
        <ele>382</ele>
        <time>2011-01-14T09:18:03Z</time>
      </trkpt>
      <trkpt lat="43.93142" lon="5.18909">
        <ele>382</ele>
        <time>2011-01-14T09:18:14Z</time>
      </trkpt>
      <trkpt lat="43.93153" lon="5.18907">
        <ele>382</ele>
        <time>2011-01-14T09:18:25Z</time>
      </trkpt>
      <trkpt lat="43.93165" lon="5.18907">
        <ele>382</ele>
        <time>2011-01-14T09:18:36Z</time>
      </trkpt>
      <trkpt lat="43.93177" lon="5.1891">
        <ele>382</ele>
        <time>2011-01-14T09:18:46Z</time>
      </trkpt>
      <trkpt lat="43.93189" lon="5.18912">
        <ele>380</ele>
        <time>2011-01-14T09:18:56Z</time>
      </trkpt>
      <trkpt lat="43.93201" lon="5.18915">
        <ele>380</ele>
        <time>2011-01-14T09:19:06Z</time>
      </trkpt>
      <trkpt lat="43.93212" lon="5.18916">
        <ele>379</ele>
        <time>2011-01-14T09:19:17Z</time>
      </trkpt>
      <trkpt lat="43.93224" lon="5.18916">
        <ele>377</ele>
        <time>2011-01-14T09:19:27Z</time>
      </trkpt>
      <trkpt lat="43.93237" lon="5.18916">
        <ele>375</ele>
        <time>2011-01-14T09:19:37Z</time>
      </trkpt>
      <trkpt lat="43.93246" lon="5.18914">
        <ele>375</ele>
        <time>2011-01-14T09:19:47Z</time>
      </trkpt>
      <trkpt lat="43.93259" lon="5.1891">
        <ele>375</ele>
        <time>2011-01-14T09:19:58Z</time>
      </trkpt>
      <trkpt lat="43.93272" lon="5.18908">
        <ele>375</ele>
        <time>2011-01-14T09:20:08Z</time>
      </trkpt>
      <trkpt lat="43.93285" lon="5.18904">
        <ele>375</ele>
        <time>2011-01-14T09:20:19Z</time>
      </trkpt>
      <trkpt lat="43.93297" lon="5.18899">
        <ele>375</ele>
        <time>2011-01-14T09:20:29Z</time>
      </trkpt>
      <trkpt lat="43.93312" lon="5.18895">
        <ele>376</ele>
        <time>2011-01-14T09:20:41Z</time>
      </trkpt>
      <trkpt lat="43.93324" lon="5.1889">
        <ele>376</ele>
        <time>2011-01-14T09:20:51Z</time>
      </trkpt>
      <trkpt lat="43.93336" lon="5.18885">
        <ele>376</ele>
        <time>2011-01-14T09:21:01Z</time>
      </trkpt>
      <trkpt lat="43.93348" lon="5.1888">
        <ele>376</ele>
        <time>2011-01-14T09:21:11Z</time>
      </trkpt>
      <trkpt lat="43.9336" lon="5.18877">
        <ele>376</ele>
        <time>2011-01-14T09:21:21Z</time>
      </trkpt>
      <trkpt lat="43.93373" lon="5.18877">
        <ele>378</ele>
        <time>2011-01-14T09:21:31Z</time>
      </trkpt>
      <trkpt lat="43.93386" lon="5.18879">
        <ele>381</ele>
        <time>2011-01-14T09:21:41Z</time>
      </trkpt>
      <trkpt lat="43.93394" lon="5.18875">
        <ele>383</ele>
        <time>2011-01-14T09:21:51Z</time>
      </trkpt>
      <trkpt lat="43.93396" lon="5.18874">
        <ele>384</ele>
        <time>2011-01-14T09:22:09Z</time>
      </trkpt>
      <trkpt lat="43.93396" lon="5.18866">
        <ele>385</ele>
        <time>2011-01-14T09:22:19Z</time>
      </trkpt>
      <trkpt lat="43.9339" lon="5.18855">
        <ele>387</ele>
        <time>2011-01-14T09:22:29Z</time>
      </trkpt>
      <trkpt lat="43.93381" lon="5.18848">
        <ele>387</ele>
        <time>2011-01-14T09:22:39Z</time>
      </trkpt>
      <trkpt lat="43.93371" lon="5.18839">
        <ele>387</ele>
        <time>2011-01-14T09:22:50Z</time>
      </trkpt>
      <trkpt lat="43.93359" lon="5.18831">
        <ele>389</ele>
        <time>2011-01-14T09:23:01Z</time>
      </trkpt>
      <trkpt lat="43.93352" lon="5.1882">
        <ele>389</ele>
        <time>2011-01-14T09:23:12Z</time>
      </trkpt>
      <trkpt lat="43.93344" lon="5.18812">
        <ele>389</ele>
        <time>2011-01-14T09:23:23Z</time>
      </trkpt>
      <trkpt lat="43.93339" lon="5.18802">
        <ele>389</ele>
        <time>2011-01-14T09:23:33Z</time>
      </trkpt>
      <trkpt lat="43.93331" lon="5.1879">
        <ele>389</ele>
        <time>2011-01-14T09:23:44Z</time>
      </trkpt>
      <trkpt lat="43.93328" lon="5.1878">
        <ele>389</ele>
        <time>2011-01-14T09:23:56Z</time>
      </trkpt>
      <trkpt lat="43.93325" lon="5.18772">
        <ele>392</ele>
        <time>2011-01-14T09:24:06Z</time>
      </trkpt>
      <trkpt lat="43.93327" lon="5.18759">
        <ele>394</ele>
        <time>2011-01-14T09:24:17Z</time>
      </trkpt>
      <trkpt lat="43.93335" lon="5.18764">
        <ele>395</ele>
        <time>2011-01-14T09:24:28Z</time>
      </trkpt>
      <trkpt lat="43.93343" lon="5.18762">
        <ele>396</ele>
        <time>2011-01-14T09:24:39Z</time>
      </trkpt>
      <trkpt lat="43.93354" lon="5.18758">
        <ele>398</ele>
        <time>2011-01-14T09:24:49Z</time>
      </trkpt>
      <trkpt lat="43.93363" lon="5.18758">
        <ele>400</ele>
        <time>2011-01-14T09:25:00Z</time>
      </trkpt>
      <trkpt lat="43.93374" lon="5.18757">
        <ele>401</ele>
        <time>2011-01-14T09:25:10Z</time>
      </trkpt>
      <trkpt lat="43.93381" lon="5.18753">
        <ele>401</ele>
        <time>2011-01-14T09:25:20Z</time>
      </trkpt>
      <trkpt lat="43.93387" lon="5.18753">
        <ele>402</ele>
        <time>2011-01-14T09:25:30Z</time>
      </trkpt>
      <trkpt lat="43.93394" lon="5.18755">
        <ele>406</ele>
        <time>2011-01-14T09:25:41Z</time>
      </trkpt>
      <trkpt lat="43.93399" lon="5.18751">
        <ele>410</ele>
        <time>2011-01-14T09:25:51Z</time>
      </trkpt>
      <trkpt lat="43.93406" lon="5.18747">
        <ele>414</ele>
        <time>2011-01-14T09:26:01Z</time>
      </trkpt>
      <trkpt lat="43.93415" lon="5.18745">
        <ele>414</ele>
        <time>2011-01-14T09:26:12Z</time>
      </trkpt>
      <trkpt lat="43.93425" lon="5.18745">
        <ele>414</ele>
        <time>2011-01-14T09:26:22Z</time>
      </trkpt>
      <trkpt lat="43.9343" lon="5.18741">
        <ele>414</ele>
        <time>2011-01-14T09:26:33Z</time>
      </trkpt>
      <trkpt lat="43.93438" lon="5.18748">
        <ele>417</ele>
        <time>2011-01-14T09:26:43Z</time>
      </trkpt>
      <trkpt lat="43.93448" lon="5.18751">
        <ele>418</ele>
        <time>2011-01-14T09:26:53Z</time>
      </trkpt>
      <trkpt lat="43.93456" lon="5.1875">
        <ele>418</ele>
        <time>2011-01-14T09:27:05Z</time>
      </trkpt>
      <trkpt lat="43.93462" lon="5.18752">
        <ele>418</ele>
        <time>2011-01-14T09:27:16Z</time>
      </trkpt>
      <trkpt lat="43.93471" lon="5.18754">
        <ele>422</ele>
        <time>2011-01-14T09:27:26Z</time>
      </trkpt>
      <trkpt lat="43.9348" lon="5.18753">
        <ele>425</ele>
        <time>2011-01-14T09:27:37Z</time>
      </trkpt>
      <trkpt lat="43.93488" lon="5.18755">
        <ele>427</ele>
        <time>2011-01-14T09:27:47Z</time>
      </trkpt>
      <trkpt lat="43.93495" lon="5.18751">
        <ele>427</ele>
        <time>2011-01-14T09:27:57Z</time>
      </trkpt>
      <trkpt lat="43.93504" lon="5.1875">
        <ele>427</ele>
        <time>2011-01-14T09:28:08Z</time>
      </trkpt>
      <trkpt lat="43.93512" lon="5.18749">
        <ele>427</ele>
        <time>2011-01-14T09:28:18Z</time>
      </trkpt>
      <trkpt lat="43.93522" lon="5.18746">
        <ele>429</ele>
        <time>2011-01-14T09:28:29Z</time>
      </trkpt>
      <trkpt lat="43.93529" lon="5.18741">
        <ele>430</ele>
        <time>2011-01-14T09:28:39Z</time>
      </trkpt>
      <trkpt lat="43.93536" lon="5.18734">
        <ele>434</ele>
        <time>2011-01-14T09:28:50Z</time>
      </trkpt>
      <trkpt lat="43.93547" lon="5.18729">
        <ele>437</ele>
        <time>2011-01-14T09:29:00Z</time>
      </trkpt>
      <trkpt lat="43.93558" lon="5.18728">
        <ele>437</ele>
        <time>2011-01-14T09:29:10Z</time>
      </trkpt>
      <trkpt lat="43.93565" lon="5.18727">
        <ele>437</ele>
        <time>2011-01-14T09:29:22Z</time>
      </trkpt>
      <trkpt lat="43.93573" lon="5.18724">
        <ele>437</ele>
        <time>2011-01-14T09:29:33Z</time>
      </trkpt>
      <trkpt lat="43.93581" lon="5.18718">
        <ele>436</ele>
        <time>2011-01-14T09:29:45Z</time>
      </trkpt>
      <trkpt lat="43.93589" lon="5.18718">
        <ele>436</ele>
        <time>2011-01-14T09:29:55Z</time>
      </trkpt>
      <trkpt lat="43.93598" lon="5.18718">
        <ele>439</ele>
        <time>2011-01-14T09:30:06Z</time>
      </trkpt>
      <trkpt lat="43.93606" lon="5.18719">
        <ele>442</ele>
        <time>2011-01-14T09:30:22Z</time>
      </trkpt>
      <trkpt lat="43.9361" lon="5.1872">
        <ele>444</ele>
        <time>2011-01-14T09:30:41Z</time>
      </trkpt>
      <trkpt lat="43.9361" lon="5.18721">
        <ele>444</ele>
        <time>2011-01-14T09:30:58Z</time>
      </trkpt>
      <trkpt lat="43.93615" lon="5.18717">
        <ele>445</ele>
        <time>2011-01-14T09:31:08Z</time>
      </trkpt>
      <trkpt lat="43.93618" lon="5.18716">
        <ele>447</ele>
        <time>2011-01-14T09:31:19Z</time>
      </trkpt>
      <trkpt lat="43.93621" lon="5.18715">
        <ele>453</ele>
        <time>2011-01-14T09:31:52Z</time>
      </trkpt>
      <trkpt lat="43.93624" lon="5.18715">
        <ele>454</ele>
        <time>2011-01-14T09:32:07Z</time>
      </trkpt>
      <trkpt lat="43.93624" lon="5.18714">
        <ele>454</ele>
        <time>2011-01-14T09:32:18Z</time>
      </trkpt>
      <trkpt lat="43.93624" lon="5.18713">
        <ele>454</ele>
        <time>2011-01-14T09:32:35Z</time>
      </trkpt>
      <trkpt lat="43.93623" lon="5.18715">
        <ele>454</ele>
        <time>2011-01-14T09:32:50Z</time>
      </trkpt>
      <trkpt lat="43.93625" lon="5.18714">
        <ele>455</ele>
        <time>2011-01-14T09:33:15Z</time>
      </trkpt>
      <trkpt lat="43.93634" lon="5.18713">
        <ele>458</ele>
        <time>2011-01-14T09:33:25Z</time>
      </trkpt>
      <trkpt lat="43.93641" lon="5.18712">
        <ele>458</ele>
        <time>2011-01-14T09:33:35Z</time>
      </trkpt>
      <trkpt lat="43.93646" lon="5.18711">
        <ele>458</ele>
        <time>2011-01-14T09:33:45Z</time>
      </trkpt>
      <trkpt lat="43.93655" lon="5.18709">
        <ele>459</ele>
        <time>2011-01-14T09:33:56Z</time>
      </trkpt>
      <trkpt lat="43.93664" lon="5.18707">
        <ele>460</ele>
        <time>2011-01-14T09:34:06Z</time>
      </trkpt>
      <trkpt lat="43.93669" lon="5.18705">
        <ele>462</ele>
        <time>2011-01-14T09:34:16Z</time>
      </trkpt>
      <trkpt lat="43.93676" lon="5.18702">
        <ele>464</ele>
        <time>2011-01-14T09:34:26Z</time>
      </trkpt>
      <trkpt lat="43.93685" lon="5.187">
        <ele>464</ele>
        <time>2011-01-14T09:34:36Z</time>
      </trkpt>
      <trkpt lat="43.93692" lon="5.18697">
        <ele>464</ele>
        <time>2011-01-14T09:34:48Z</time>
      </trkpt>
      <trkpt lat="43.937" lon="5.18695">
        <ele>464</ele>
        <time>2011-01-14T09:34:58Z</time>
      </trkpt>
      <trkpt lat="43.93708" lon="5.18691">
        <ele>466</ele>
        <time>2011-01-14T09:35:09Z</time>
      </trkpt>
      <trkpt lat="43.93716" lon="5.18683">
        <ele>467</ele>
        <time>2011-01-14T09:35:19Z</time>
      </trkpt>
      <trkpt lat="43.93719" lon="5.18672">
        <ele>467</ele>
        <time>2011-01-14T09:35:29Z</time>
      </trkpt>
      <trkpt lat="43.93724" lon="5.18663">
        <ele>472</ele>
        <time>2011-01-14T09:35:39Z</time>
      </trkpt>
      <trkpt lat="43.93727" lon="5.18655">
        <ele>477</ele>
        <time>2011-01-14T09:35:49Z</time>
      </trkpt>
      <trkpt lat="43.93737" lon="5.18643">
        <ele>478</ele>
        <time>2011-01-14T09:36:00Z</time>
      </trkpt>
      <trkpt lat="43.93741" lon="5.1863">
        <ele>478</ele>
        <time>2011-01-14T09:36:10Z</time>
      </trkpt>
      <trkpt lat="43.93741" lon="5.18614">
        <ele>478</ele>
        <time>2011-01-14T09:36:21Z</time>
      </trkpt>
      <trkpt lat="43.93736" lon="5.18599">
        <ele>472</ele>
        <time>2011-01-14T09:36:31Z</time>
      </trkpt>
      <trkpt lat="43.93733" lon="5.18586">
        <ele>465</ele>
        <time>2011-01-14T09:36:41Z</time>
      </trkpt>
      <trkpt lat="43.93735" lon="5.18574">
        <ele>463</ele>
        <time>2011-01-14T09:36:51Z</time>
      </trkpt>
      <trkpt lat="43.93737" lon="5.18562">
        <ele>463</ele>
        <time>2011-01-14T09:37:02Z</time>
      </trkpt>
      <trkpt lat="43.9374" lon="5.18551">
        <ele>462</ele>
        <time>2011-01-14T09:37:12Z</time>
      </trkpt>
      <trkpt lat="43.93756" lon="5.18546">
        <ele>463</ele>
        <time>2011-01-14T09:37:23Z</time>
      </trkpt>
      <trkpt lat="43.93772" lon="5.18541">
        <ele>485</ele>
        <time>2011-01-14T09:37:34Z</time>
      </trkpt>
      <trkpt lat="43.93779" lon="5.18535">
        <ele>486</ele>
        <time>2011-01-14T09:37:46Z</time>
      </trkpt>
      <trkpt lat="43.93786" lon="5.18528">
        <ele>486</ele>
        <time>2011-01-14T09:37:56Z</time>
      </trkpt>
      <trkpt lat="43.93796" lon="5.18522">
        <ele>486</ele>
        <time>2011-01-14T09:38:07Z</time>
      </trkpt>
      <trkpt lat="43.93807" lon="5.18521">
        <ele>486</ele>
        <time>2011-01-14T09:38:17Z</time>
      </trkpt>
      <trkpt lat="43.93817" lon="5.18517">
        <ele>486</ele>
        <time>2011-01-14T09:38:28Z</time>
      </trkpt>
      <trkpt lat="43.93823" lon="5.18512">
        <ele>486</ele>
        <time>2011-01-14T09:38:38Z</time>
      </trkpt>
      <trkpt lat="43.93834" lon="5.18509">
        <ele>486</ele>
        <time>2011-01-14T09:38:49Z</time>
      </trkpt>
      <trkpt lat="43.93845" lon="5.18505">
        <ele>486</ele>
        <time>2011-01-14T09:39:00Z</time>
      </trkpt>
      <trkpt lat="43.93855" lon="5.18501">
        <ele>486</ele>
        <time>2011-01-14T09:39:10Z</time>
      </trkpt>
      <trkpt lat="43.9386" lon="5.1849">
        <ele>493</ele>
        <time>2011-01-14T09:39:21Z</time>
      </trkpt>
      <trkpt lat="43.93866" lon="5.18482">
        <ele>493</ele>
        <time>2011-01-14T09:39:31Z</time>
      </trkpt>
      <trkpt lat="43.93872" lon="5.18475">
        <ele>493</ele>
        <time>2011-01-14T09:39:41Z</time>
      </trkpt>
      <trkpt lat="43.93875" lon="5.18468">
        <ele>494</ele>
        <time>2011-01-14T09:39:53Z</time>
      </trkpt>
      <trkpt lat="43.93879" lon="5.1846">
        <ele>494</ele>
        <time>2011-01-14T09:40:03Z</time>
      </trkpt>
      <trkpt lat="43.93881" lon="5.18451">
        <ele>494</ele>
        <time>2011-01-14T09:40:14Z</time>
      </trkpt>
      <trkpt lat="43.93888" lon="5.18446">
        <ele>497</ele>
        <time>2011-01-14T09:40:25Z</time>
      </trkpt>
      <trkpt lat="43.93893" lon="5.18437">
        <ele>499</ele>
        <time>2011-01-14T09:40:36Z</time>
      </trkpt>
      <trkpt lat="43.93897" lon="5.1843">
        <ele>501</ele>
        <time>2011-01-14T09:40:47Z</time>
      </trkpt>
      <trkpt lat="43.93903" lon="5.18426">
        <ele>501</ele>
        <time>2011-01-14T09:40:57Z</time>
      </trkpt>
      <trkpt lat="43.93909" lon="5.18421">
        <ele>507</ele>
        <time>2011-01-14T09:41:08Z</time>
      </trkpt>
      <trkpt lat="43.93914" lon="5.18415">
        <ele>509</ele>
        <time>2011-01-14T09:41:18Z</time>
      </trkpt>
      <trkpt lat="43.93922" lon="5.18409">
        <ele>509</ele>
        <time>2011-01-14T09:41:29Z</time>
      </trkpt>
      <trkpt lat="43.93927" lon="5.18402">
        <ele>509</ele>
        <time>2011-01-14T09:41:40Z</time>
      </trkpt>
      <trkpt lat="43.93934" lon="5.18399">
        <ele>510</ele>
        <time>2011-01-14T09:41:50Z</time>
      </trkpt>
      <trkpt lat="43.93944" lon="5.18396">
        <ele>512</ele>
        <time>2011-01-14T09:42:01Z</time>
      </trkpt>
      <trkpt lat="43.93951" lon="5.18391">
        <ele>512</ele>
        <time>2011-01-14T09:42:12Z</time>
      </trkpt>
      <trkpt lat="43.93956" lon="5.18386">
        <ele>517</ele>
        <time>2011-01-14T09:42:23Z</time>
      </trkpt>
      <trkpt lat="43.93963" lon="5.18382">
        <ele>521</ele>
        <time>2011-01-14T09:42:34Z</time>
      </trkpt>
      <trkpt lat="43.93967" lon="5.18378">
        <ele>523</ele>
        <time>2011-01-14T09:42:44Z</time>
      </trkpt>
      <trkpt lat="43.93972" lon="5.18371">
        <ele>524</ele>
        <time>2011-01-14T09:42:54Z</time>
      </trkpt>
      <trkpt lat="43.9398" lon="5.18364">
        <ele>525</ele>
        <time>2011-01-14T09:43:04Z</time>
      </trkpt>
      <trkpt lat="43.93983" lon="5.18358">
        <ele>529</ele>
        <time>2011-01-14T09:43:15Z</time>
      </trkpt>
      <trkpt lat="43.93989" lon="5.18352">
        <ele>531</ele>
        <time>2011-01-14T09:43:25Z</time>
      </trkpt>
      <trkpt lat="43.93998" lon="5.18352">
        <ele>531</ele>
        <time>2011-01-14T09:43:35Z</time>
      </trkpt>
      <trkpt lat="43.94003" lon="5.1835">
        <ele>531</ele>
        <time>2011-01-14T09:43:45Z</time>
      </trkpt>
      <trkpt lat="43.94008" lon="5.18346">
        <ele>533</ele>
        <time>2011-01-14T09:43:55Z</time>
      </trkpt>
      <trkpt lat="43.94011" lon="5.18339">
        <ele>534</ele>
        <time>2011-01-14T09:44:06Z</time>
      </trkpt>
      <trkpt lat="43.94015" lon="5.18333">
        <ele>536</ele>
        <time>2011-01-14T09:44:16Z</time>
      </trkpt>
      <trkpt lat="43.94018" lon="5.18326">
        <ele>539</ele>
        <time>2011-01-14T09:44:27Z</time>
      </trkpt>
      <trkpt lat="43.94024" lon="5.18322">
        <ele>540</ele>
        <time>2011-01-14T09:44:37Z</time>
      </trkpt>
      <trkpt lat="43.94036" lon="5.18319">
        <ele>541</ele>
        <time>2011-01-14T09:44:48Z</time>
      </trkpt>
      <trkpt lat="43.9404" lon="5.1831">
        <ele>541</ele>
        <time>2011-01-14T09:44:59Z</time>
      </trkpt>
      <trkpt lat="43.94046" lon="5.18303">
        <ele>540</ele>
        <time>2011-01-14T09:45:11Z</time>
      </trkpt>
      <trkpt lat="43.94051" lon="5.18297">
        <ele>540</ele>
        <time>2011-01-14T09:45:21Z</time>
      </trkpt>
      <trkpt lat="43.94059" lon="5.18293">
        <ele>540</ele>
        <time>2011-01-14T09:45:31Z</time>
      </trkpt>
      <trkpt lat="43.94066" lon="5.18285">
        <ele>540</ele>
        <time>2011-01-14T09:45:42Z</time>
      </trkpt>
      <trkpt lat="43.94073" lon="5.18283">
        <ele>539</ele>
        <time>2011-01-14T09:45:52Z</time>
      </trkpt>
      <trkpt lat="43.9408" lon="5.18284">
        <ele>539</ele>
        <time>2011-01-14T09:46:03Z</time>
      </trkpt>
      <trkpt lat="43.94088" lon="5.18285">
        <ele>540</ele>
        <time>2011-01-14T09:46:14Z</time>
      </trkpt>
      <trkpt lat="43.94095" lon="5.1828">
        <ele>543</ele>
        <time>2011-01-14T09:46:25Z</time>
      </trkpt>
      <trkpt lat="43.94103" lon="5.18278">
        <ele>543</ele>
        <time>2011-01-14T09:46:36Z</time>
      </trkpt>
      <trkpt lat="43.94112" lon="5.18277">
        <ele>546</ele>
        <time>2011-01-14T09:46:47Z</time>
      </trkpt>
      <trkpt lat="43.94117" lon="5.18279">
        <ele>549</ele>
        <time>2011-01-14T09:46:58Z</time>
      </trkpt>
      <trkpt lat="43.94122" lon="5.18274">
        <ele>550</ele>
        <time>2011-01-14T09:47:10Z</time>
      </trkpt>
      <trkpt lat="43.94128" lon="5.18274">
        <ele>550</ele>
        <time>2011-01-14T09:47:21Z</time>
      </trkpt>
      <trkpt lat="43.94135" lon="5.18276">
        <ele>552</ele>
        <time>2011-01-14T09:47:32Z</time>
      </trkpt>
      <trkpt lat="43.94143" lon="5.18276">
        <ele>553</ele>
        <time>2011-01-14T09:47:42Z</time>
      </trkpt>
      <trkpt lat="43.9415" lon="5.18277">
        <ele>556</ele>
        <time>2011-01-14T09:47:54Z</time>
      </trkpt>
      <trkpt lat="43.94156" lon="5.18272">
        <ele>557</ele>
        <time>2011-01-14T09:48:05Z</time>
      </trkpt>
      <trkpt lat="43.94162" lon="5.18267">
        <ele>557</ele>
        <time>2011-01-14T09:48:16Z</time>
      </trkpt>
      <trkpt lat="43.9417" lon="5.18267">
        <ele>563</ele>
        <time>2011-01-14T09:48:27Z</time>
      </trkpt>
      <trkpt lat="43.94177" lon="5.18262">
        <ele>565</ele>
        <time>2011-01-14T09:48:37Z</time>
      </trkpt>
      <trkpt lat="43.94183" lon="5.18255">
        <ele>565</ele>
        <time>2011-01-14T09:48:47Z</time>
      </trkpt>
      <trkpt lat="43.94187" lon="5.18245">
        <ele>565</ele>
        <time>2011-01-14T09:48:57Z</time>
      </trkpt>
      <trkpt lat="43.94189" lon="5.18231">
        <ele>565</ele>
        <time>2011-01-14T09:49:09Z</time>
      </trkpt>
      <trkpt lat="43.94197" lon="5.18231">
        <ele>565</ele>
        <time>2011-01-14T09:49:19Z</time>
      </trkpt>
      <trkpt lat="43.94208" lon="5.18232">
        <ele>566</ele>
        <time>2011-01-14T09:49:30Z</time>
      </trkpt>
      <trkpt lat="43.94215" lon="5.18233">
        <ele>567</ele>
        <time>2011-01-14T09:49:41Z</time>
      </trkpt>
      <trkpt lat="43.94224" lon="5.18232">
        <ele>569</ele>
        <time>2011-01-14T09:49:53Z</time>
      </trkpt>
      <trkpt lat="43.94233" lon="5.18231">
        <ele>572</ele>
        <time>2011-01-14T09:50:03Z</time>
      </trkpt>
      <trkpt lat="43.94241" lon="5.18226">
        <ele>572</ele>
        <time>2011-01-14T09:50:13Z</time>
      </trkpt>
      <trkpt lat="43.94249" lon="5.18225">
        <ele>572</ele>
        <time>2011-01-14T09:50:25Z</time>
      </trkpt>
      <trkpt lat="43.94259" lon="5.18221">
        <ele>574</ele>
        <time>2011-01-14T09:50:36Z</time>
      </trkpt>
      <trkpt lat="43.94268" lon="5.18217">
        <ele>574</ele>
        <time>2011-01-14T09:50:46Z</time>
      </trkpt>
      <trkpt lat="43.94276" lon="5.1821">
        <ele>574</ele>
        <time>2011-01-14T09:50:56Z</time>
      </trkpt>
      <trkpt lat="43.94286" lon="5.18205">
        <ele>575</ele>
        <time>2011-01-14T09:51:07Z</time>
      </trkpt>
      <trkpt lat="43.94294" lon="5.18202">
        <ele>576</ele>
        <time>2011-01-14T09:51:18Z</time>
      </trkpt>
      <trkpt lat="43.94302" lon="5.18194">
        <ele>577</ele>
        <time>2011-01-14T09:51:28Z</time>
      </trkpt>
      <trkpt lat="43.9431" lon="5.1819">
        <ele>577</ele>
        <time>2011-01-14T09:51:39Z</time>
      </trkpt>
      <trkpt lat="43.94318" lon="5.18189">
        <ele>577</ele>
        <time>2011-01-14T09:51:49Z</time>
      </trkpt>
      <trkpt lat="43.94325" lon="5.18188">
        <ele>578</ele>
        <time>2011-01-14T09:51:59Z</time>
      </trkpt>
      <trkpt lat="43.94334" lon="5.18187">
        <ele>578</ele>
        <time>2011-01-14T09:52:09Z</time>
      </trkpt>
      <trkpt lat="43.94342" lon="5.18184">
        <ele>578</ele>
        <time>2011-01-14T09:52:19Z</time>
      </trkpt>
      <trkpt lat="43.94353" lon="5.18183">
        <ele>579</ele>
        <time>2011-01-14T09:52:29Z</time>
      </trkpt>
      <trkpt lat="43.94361" lon="5.18182">
        <ele>581</ele>
        <time>2011-01-14T09:52:39Z</time>
      </trkpt>
      <trkpt lat="43.94368" lon="5.18183">
        <ele>583</ele>
        <time>2011-01-14T09:52:49Z</time>
      </trkpt>
      <trkpt lat="43.94377" lon="5.18179">
        <ele>584</ele>
        <time>2011-01-14T09:52:59Z</time>
      </trkpt>
      <trkpt lat="43.94385" lon="5.18174">
        <ele>585</ele>
        <time>2011-01-14T09:53:10Z</time>
      </trkpt>
      <trkpt lat="43.94394" lon="5.1817">
        <ele>586</ele>
        <time>2011-01-14T09:53:20Z</time>
      </trkpt>
      <trkpt lat="43.94402" lon="5.18167">
        <ele>586</ele>
        <time>2011-01-14T09:53:30Z</time>
      </trkpt>
      <trkpt lat="43.94411" lon="5.18161">
        <ele>586</ele>
        <time>2011-01-14T09:53:41Z</time>
      </trkpt>
      <trkpt lat="43.94418" lon="5.18159">
        <ele>586</ele>
        <time>2011-01-14T09:53:52Z</time>
      </trkpt>
      <trkpt lat="43.94429" lon="5.18152">
        <ele>586</ele>
        <time>2011-01-14T09:54:03Z</time>
      </trkpt>
      <trkpt lat="43.94438" lon="5.18141">
        <ele>586</ele>
        <time>2011-01-14T09:54:13Z</time>
      </trkpt>
      <trkpt lat="43.94445" lon="5.18133">
        <ele>587</ele>
        <time>2011-01-14T09:54:23Z</time>
      </trkpt>
      <trkpt lat="43.94446" lon="5.18128">
        <ele>588</ele>
        <time>2011-01-14T09:54:39Z</time>
      </trkpt>
      <trkpt lat="43.94446" lon="5.18127">
        <ele>590</ele>
        <time>2011-01-14T09:54:49Z</time>
      </trkpt>
      <trkpt lat="43.9445" lon="5.18123">
        <ele>593</ele>
        <time>2011-01-14T09:55:11Z</time>
      </trkpt>
      <trkpt lat="43.94452" lon="5.18124">
        <ele>597</ele>
        <time>2011-01-14T09:55:36Z</time>
      </trkpt>
      <trkpt lat="43.94451" lon="5.18125">
        <ele>598</ele>
        <time>2011-01-14T09:56:09Z</time>
      </trkpt>
      <trkpt lat="43.94452" lon="5.18124">
        <ele>597</ele>
        <time>2011-01-14T09:56:45Z</time>
      </trkpt>
      <trkpt lat="43.94453" lon="5.18124">
        <ele>597</ele>
        <time>2011-01-14T09:57:10Z</time>
      </trkpt>
      <trkpt lat="43.94452" lon="5.18123">
        <ele>597</ele>
        <time>2011-01-14T09:57:21Z</time>
      </trkpt>
      <trkpt lat="43.94453" lon="5.18128">
        <ele>597</ele>
        <time>2011-01-14T09:57:37Z</time>
      </trkpt>
      <trkpt lat="43.94453" lon="5.18125">
        <ele>597</ele>
        <time>2011-01-14T09:57:57Z</time>
      </trkpt>
      <trkpt lat="43.94453" lon="5.18127">
        <ele>597</ele>
        <time>2011-01-14T09:58:21Z</time>
      </trkpt>
      <trkpt lat="43.94459" lon="5.18121">
        <ele>597</ele>
        <time>2011-01-14T09:58:33Z</time>
      </trkpt>
      <trkpt lat="43.94471" lon="5.18113">
        <ele>595</ele>
        <time>2011-01-14T09:58:44Z</time>
      </trkpt>
      <trkpt lat="43.94484" lon="5.18107">
        <ele>594</ele>
        <time>2011-01-14T09:58:54Z</time>
      </trkpt>
      <trkpt lat="43.94494" lon="5.18105">
        <ele>594</ele>
        <time>2011-01-14T09:59:04Z</time>
      </trkpt>
      <trkpt lat="43.94506" lon="5.181">
        <ele>594</ele>
        <time>2011-01-14T09:59:16Z</time>
      </trkpt>
      <trkpt lat="43.94516" lon="5.181">
        <ele>593</ele>
        <time>2011-01-14T09:59:27Z</time>
      </trkpt>
      <trkpt lat="43.94527" lon="5.18098">
        <ele>591</ele>
        <time>2011-01-14T09:59:38Z</time>
      </trkpt>
      <trkpt lat="43.9454" lon="5.18096">
        <ele>591</ele>
        <time>2011-01-14T09:59:48Z</time>
      </trkpt>
      <trkpt lat="43.94553" lon="5.18096">
        <ele>591</ele>
        <time>2011-01-14T09:59:58Z</time>
      </trkpt>
      <trkpt lat="43.94562" lon="5.18094">
        <ele>592</ele>
        <time>2011-01-14T10:00:09Z</time>
      </trkpt>
      <trkpt lat="43.94575" lon="5.18091">
        <ele>593</ele>
        <time>2011-01-14T10:00:20Z</time>
      </trkpt>
      <trkpt lat="43.94586" lon="5.18091">
        <ele>593</ele>
        <time>2011-01-14T10:00:31Z</time>
      </trkpt>
      <trkpt lat="43.94599" lon="5.1809">
        <ele>593</ele>
        <time>2011-01-14T10:00:41Z</time>
      </trkpt>
      <trkpt lat="43.9461" lon="5.1809">
        <ele>593</ele>
        <time>2011-01-14T10:00:51Z</time>
      </trkpt>
      <trkpt lat="43.94621" lon="5.18091">
        <ele>593</ele>
        <time>2011-01-14T10:01:02Z</time>
      </trkpt>
      <trkpt lat="43.94633" lon="5.1809">
        <ele>593</ele>
        <time>2011-01-14T10:01:12Z</time>
      </trkpt>
      <trkpt lat="43.94643" lon="5.18093">
        <ele>593</ele>
        <time>2011-01-14T10:01:23Z</time>
      </trkpt>
      <trkpt lat="43.94654" lon="5.18093">
        <ele>593</ele>
        <time>2011-01-14T10:01:33Z</time>
      </trkpt>
      <trkpt lat="43.94664" lon="5.18091">
        <ele>593</ele>
        <time>2011-01-14T10:01:44Z</time>
      </trkpt>
      <trkpt lat="43.94672" lon="5.18095">
        <ele>593</ele>
        <time>2011-01-14T10:01:55Z</time>
      </trkpt>
      <trkpt lat="43.94687" lon="5.18098">
        <ele>593</ele>
        <time>2011-01-14T10:02:05Z</time>
      </trkpt>
      <trkpt lat="43.94699" lon="5.181">
        <ele>594</ele>
        <time>2011-01-14T10:02:15Z</time>
      </trkpt>
      <trkpt lat="43.9471" lon="5.181">
        <ele>594</ele>
        <time>2011-01-14T10:02:26Z</time>
      </trkpt>
      <trkpt lat="43.94721" lon="5.18099">
        <ele>595</ele>
        <time>2011-01-14T10:02:37Z</time>
      </trkpt>
      <trkpt lat="43.94734" lon="5.18097">
        <ele>595</ele>
        <time>2011-01-14T10:02:48Z</time>
      </trkpt>
      <trkpt lat="43.94744" lon="5.18095">
        <ele>595</ele>
        <time>2011-01-14T10:02:58Z</time>
      </trkpt>
      <trkpt lat="43.94754" lon="5.18093">
        <ele>595</ele>
        <time>2011-01-14T10:03:08Z</time>
      </trkpt>
      <trkpt lat="43.94764" lon="5.18092">
        <ele>595</ele>
        <time>2011-01-14T10:03:18Z</time>
      </trkpt>
      <trkpt lat="43.94774" lon="5.18084">
        <ele>598</ele>
        <time>2011-01-14T10:03:29Z</time>
      </trkpt>
      <trkpt lat="43.94781" lon="5.18077">
        <ele>604</ele>
        <time>2011-01-14T10:03:39Z</time>
      </trkpt>
      <trkpt lat="43.94792" lon="5.18076">
        <ele>608</ele>
        <time>2011-01-14T10:03:49Z</time>
      </trkpt>
      <trkpt lat="43.94804" lon="5.18078">
        <ele>610</ele>
        <time>2011-01-14T10:04:00Z</time>
      </trkpt>
      <trkpt lat="43.94813" lon="5.18076">
        <ele>611</ele>
        <time>2011-01-14T10:04:11Z</time>
      </trkpt>
      <trkpt lat="43.94819" lon="5.18069">
        <ele>611</ele>
        <time>2011-01-14T10:04:22Z</time>
      </trkpt>
      <trkpt lat="43.94828" lon="5.18063">
        <ele>611</ele>
        <time>2011-01-14T10:04:32Z</time>
      </trkpt>
      <trkpt lat="43.94831" lon="5.18055">
        <ele>611</ele>
        <time>2011-01-14T10:04:42Z</time>
      </trkpt>
      <trkpt lat="43.94839" lon="5.18055">
        <ele>611</ele>
        <time>2011-01-14T10:04:53Z</time>
      </trkpt>
      <trkpt lat="43.94843" lon="5.18054">
        <ele>611</ele>
        <time>2011-01-14T10:05:04Z</time>
      </trkpt>
      <trkpt lat="43.94844" lon="5.18066">
        <ele>603</ele>
        <time>2011-01-14T10:05:16Z</time>
      </trkpt>
      <trkpt lat="43.94844" lon="5.1806">
        <ele>602</ele>
        <time>2011-01-14T10:05:30Z</time>
      </trkpt>
      <trkpt lat="43.94849" lon="5.18059">
        <ele>598</ele>
        <time>2011-01-14T10:05:41Z</time>
      </trkpt>
      <trkpt lat="43.94852" lon="5.18058">
        <ele>598</ele>
        <time>2011-01-14T10:05:51Z</time>
      </trkpt>
      <trkpt lat="43.94851" lon="5.18059">
        <ele>598</ele>
        <time>2011-01-14T10:06:09Z</time>
      </trkpt>
      <trkpt lat="43.94849" lon="5.18056">
        <ele>599</ele>
        <time>2011-01-14T10:06:23Z</time>
      </trkpt>
      <trkpt lat="43.94844" lon="5.18052">
        <ele>610</ele>
        <time>2011-01-14T10:06:34Z</time>
      </trkpt>
      <trkpt lat="43.94848" lon="5.18056">
        <ele>617</ele>
        <time>2011-01-14T10:06:44Z</time>
      </trkpt>
      <trkpt lat="43.94849" lon="5.18058">
        <ele>610</ele>
        <time>2011-01-14T10:06:56Z</time>
      </trkpt>
      <trkpt lat="43.9485" lon="5.18062">
        <ele>605</ele>
        <time>2011-01-14T10:07:08Z</time>
      </trkpt>
      <trkpt lat="43.94853" lon="5.1806">
        <ele>605</ele>
        <time>2011-01-14T10:07:20Z</time>
      </trkpt>
      <trkpt lat="43.94849" lon="5.18055">
        <ele>603</ele>
        <time>2011-01-14T10:07:30Z</time>
      </trkpt>
      <trkpt lat="43.94849" lon="5.18057">
        <ele>603</ele>
        <time>2011-01-14T10:07:41Z</time>
      </trkpt>
      <trkpt lat="43.94851" lon="5.18058">
        <ele>597</ele>
        <time>2011-01-14T10:07:51Z</time>
      </trkpt>
      <trkpt lat="43.9485" lon="5.18059">
        <ele>597</ele>
        <time>2011-01-14T10:08:05Z</time>
      </trkpt>
      <trkpt lat="43.94847" lon="5.18066">
        <ele>594</ele>
        <time>2011-01-14T10:08:15Z</time>
      </trkpt>
      <trkpt lat="43.9485" lon="5.18063">
        <ele>592</ele>
        <time>2011-01-14T10:08:25Z</time>
      </trkpt>
      <trkpt lat="43.94852" lon="5.18062">
        <ele>602</ele>
        <time>2011-01-14T10:08:38Z</time>
      </trkpt>
      <trkpt lat="43.94848" lon="5.18067">
        <ele>606</ele>
        <time>2011-01-14T10:08:49Z</time>
      </trkpt>
      <trkpt lat="43.94849" lon="5.18061">
        <ele>606</ele>
        <time>2011-01-14T10:09:00Z</time>
      </trkpt>
      <trkpt lat="43.94846" lon="5.18061">
        <ele>605</ele>
        <time>2011-01-14T10:09:12Z</time>
      </trkpt>
      <trkpt lat="43.94853" lon="5.18057">
        <ele>601</ele>
        <time>2011-01-14T10:09:22Z</time>
      </trkpt>
      <trkpt lat="43.94851" lon="5.18059">
        <ele>600</ele>
        <time>2011-01-14T10:09:33Z</time>
      </trkpt>
      <trkpt lat="43.94848" lon="5.1806">
        <ele>598</ele>
        <time>2011-01-14T10:09:45Z</time>
      </trkpt>
      <trkpt lat="43.94851" lon="5.18058">
        <ele>603</ele>
        <time>2011-01-14T10:09:56Z</time>
      </trkpt>
      <trkpt lat="43.9485" lon="5.18061">
        <ele>604</ele>
        <time>2011-01-14T10:10:08Z</time>
      </trkpt>
      <trkpt lat="43.94848" lon="5.1806">
        <ele>604</ele>
        <time>2011-01-14T10:10:18Z</time>
      </trkpt>
      <trkpt lat="43.94844" lon="5.18058">
        <ele>604</ele>
        <time>2011-01-14T10:10:29Z</time>
      </trkpt>
      <trkpt lat="43.94841" lon="5.18051">
        <ele>604</ele>
        <time>2011-01-14T10:10:39Z</time>
      </trkpt>
      <trkpt lat="43.94845" lon="5.18051">
        <ele>595</ele>
        <time>2011-01-14T10:10:52Z</time>
      </trkpt>
      <trkpt lat="43.94845" lon="5.18047">
        <ele>593</ele>
        <time>2011-01-14T10:11:04Z</time>
      </trkpt>
      <trkpt lat="43.94841" lon="5.18039">
        <ele>594</ele>
        <time>2011-01-14T10:11:14Z</time>
      </trkpt>
      <trkpt lat="43.94842" lon="5.18029">
        <ele>598</ele>
        <time>2011-01-14T10:11:27Z</time>
      </trkpt>
      <trkpt lat="43.94839" lon="5.18028">
        <ele>599</ele>
        <time>2011-01-14T10:11:37Z</time>
      </trkpt>
      <trkpt lat="43.94839" lon="5.18032">
        <ele>600</ele>
        <time>2011-01-14T10:11:47Z</time>
      </trkpt>
      <trkpt lat="43.94838" lon="5.18032">
        <ele>600</ele>
        <time>2011-01-14T10:12:03Z</time>
      </trkpt>
      <trkpt lat="43.94841" lon="5.18045">
        <ele>600</ele>
        <time>2011-01-14T10:12:13Z</time>
      </trkpt>
      <trkpt lat="43.94849" lon="5.18058">
        <ele>600</ele>
        <time>2011-01-14T10:12:26Z</time>
      </trkpt>
      <trkpt lat="43.94845" lon="5.18062">
        <ele>600</ele>
        <time>2011-01-14T10:12:37Z</time>
      </trkpt>
      <trkpt lat="43.94846" lon="5.18056">
        <ele>600</ele>
        <time>2011-01-14T10:12:47Z</time>
      </trkpt>
      <trkpt lat="43.94842" lon="5.18057">
        <ele>600</ele>
        <time>2011-01-14T10:13:01Z</time>
      </trkpt>
      <trkpt lat="43.94841" lon="5.18058">
        <ele>600</ele>
        <time>2011-01-14T10:13:11Z</time>
      </trkpt>
      <trkpt lat="43.94847" lon="5.18058">
        <ele>600</ele>
        <time>2011-01-14T10:13:21Z</time>
      </trkpt>
      <trkpt lat="43.94849" lon="5.18064">
        <ele>600</ele>
        <time>2011-01-14T10:13:33Z</time>
      </trkpt>
      <trkpt lat="43.9485" lon="5.18068">
        <ele>604</ele>
        <time>2011-01-14T10:13:43Z</time>
      </trkpt>
      <trkpt lat="43.9485" lon="5.1807">
        <ele>608</ele>
        <time>2011-01-14T10:13:57Z</time>
      </trkpt>
      <trkpt lat="43.94851" lon="5.18068">
        <ele>609</ele>
        <time>2011-01-14T10:14:07Z</time>
      </trkpt>
      <trkpt lat="43.94849" lon="5.18061">
        <ele>605</ele>
        <time>2011-01-14T10:14:20Z</time>
      </trkpt>
      <trkpt lat="43.94846" lon="5.18058">
        <ele>599</ele>
        <time>2011-01-14T10:14:38Z</time>
      </trkpt>
      <trkpt lat="43.94844" lon="5.18059">
        <ele>599</ele>
        <time>2011-01-14T10:14:49Z</time>
      </trkpt>
      <trkpt lat="43.94846" lon="5.18063">
        <ele>600</ele>
        <time>2011-01-14T10:14:59Z</time>
      </trkpt>
      <trkpt lat="43.94842" lon="5.18064">
        <ele>603</ele>
        <time>2011-01-14T10:15:09Z</time>
      </trkpt>
      <trkpt lat="43.94846" lon="5.1806">
        <ele>603</ele>
        <time>2011-01-14T10:15:22Z</time>
      </trkpt>
      <trkpt lat="43.9485" lon="5.18057">
        <ele>601</ele>
        <time>2011-01-14T10:15:37Z</time>
      </trkpt>
      <trkpt lat="43.94851" lon="5.18055">
        <ele>605</ele>
        <time>2011-01-14T10:15:53Z</time>
      </trkpt>
      <trkpt lat="43.94853" lon="5.18055">
        <ele>610</ele>
        <time>2011-01-14T10:16:03Z</time>
      </trkpt>
      <trkpt lat="43.94849" lon="5.18056">
        <ele>610</ele>
        <time>2011-01-14T10:16:17Z</time>
      </trkpt>
      <trkpt lat="43.94851" lon="5.18055">
        <ele>610</ele>
        <time>2011-01-14T10:16:27Z</time>
      </trkpt>
      <trkpt lat="43.94847" lon="5.18055">
        <ele>603</ele>
        <time>2011-01-14T10:16:50Z</time>
      </trkpt>
      <trkpt lat="43.94845" lon="5.18056">
        <ele>601</ele>
        <time>2011-01-14T10:17:02Z</time>
      </trkpt>
      <trkpt lat="43.94847" lon="5.18056">
        <ele>599</ele>
        <time>2011-01-14T10:17:13Z</time>
      </trkpt>
      <trkpt lat="43.94849" lon="5.18053">
        <ele>599</ele>
        <time>2011-01-14T10:17:25Z</time>
      </trkpt>
      <trkpt lat="43.94851" lon="5.18052">
        <ele>599</ele>
        <time>2011-01-14T10:17:35Z</time>
      </trkpt>
      <trkpt lat="43.94854" lon="5.18053">
        <ele>597</ele>
        <time>2011-01-14T10:17:45Z</time>
      </trkpt>
      <trkpt lat="43.94855" lon="5.18055">
        <ele>597</ele>
        <time>2011-01-14T10:17:58Z</time>
      </trkpt>
      <trkpt lat="43.94856" lon="5.18057">
        <ele>600</ele>
        <time>2011-01-14T10:18:08Z</time>
      </trkpt>
      <trkpt lat="43.94855" lon="5.18055">
        <ele>605</ele>
        <time>2011-01-14T10:18:19Z</time>
      </trkpt>
      <trkpt lat="43.94855" lon="5.18057">
        <ele>605</ele>
        <time>2011-01-14T10:18:35Z</time>
      </trkpt>
      <trkpt lat="43.94857" lon="5.18054">
        <ele>601</ele>
        <time>2011-01-14T10:18:45Z</time>
      </trkpt>
      <trkpt lat="43.94857" lon="5.18057">
        <ele>601</ele>
        <time>2011-01-14T10:18:59Z</time>
      </trkpt>
      <trkpt lat="43.94855" lon="5.18058">
        <ele>601</ele>
        <time>2011-01-14T10:19:19Z</time>
      </trkpt>
      <trkpt lat="43.94854" lon="5.18053">
        <ele>601</ele>
        <time>2011-01-14T10:19:34Z</time>
      </trkpt>
      <trkpt lat="43.94854" lon="5.18054">
        <ele>601</ele>
        <time>2011-01-14T10:19:44Z</time>
      </trkpt>
      <trkpt lat="43.94852" lon="5.18054">
        <ele>601</ele>
        <time>2011-01-14T10:19:58Z</time>
      </trkpt>
      <trkpt lat="43.94852" lon="5.18054">
        <ele>601</ele>
        <time>2011-01-14T10:20:09Z</time>
      </trkpt>
      <trkpt lat="43.94849" lon="5.18055">
        <ele>601</ele>
        <time>2011-01-14T10:20:20Z</time>
      </trkpt>
      <trkpt lat="43.94845" lon="5.18056">
        <ele>601</ele>
        <time>2011-01-14T10:20:30Z</time>
      </trkpt>
      <trkpt lat="43.94846" lon="5.18062">
        <ele>603</ele>
        <time>2011-01-14T10:20:40Z</time>
      </trkpt>
      <trkpt lat="43.94847" lon="5.18063">
        <ele>609</ele>
        <time>2011-01-14T10:20:50Z</time>
      </trkpt>
      <trkpt lat="43.94851" lon="5.18067">
        <ele>614</ele>
        <time>2011-01-14T10:21:03Z</time>
      </trkpt>
      <trkpt lat="43.94855" lon="5.18059">
        <ele>613</ele>
        <time>2011-01-14T10:21:13Z</time>
      </trkpt>
      <trkpt lat="43.94861" lon="5.18058">
        <ele>598</ele>
        <time>2011-01-14T10:21:28Z</time>
      </trkpt>
      <trkpt lat="43.94856" lon="5.18058">
        <ele>600</ele>
        <time>2011-01-14T10:21:38Z</time>
      </trkpt>
      <trkpt lat="43.9485" lon="5.18062">
        <ele>603</ele>
        <time>2011-01-14T10:21:52Z</time>
      </trkpt>
      <trkpt lat="43.94851" lon="5.18066">
        <ele>605</ele>
        <time>2011-01-14T10:22:02Z</time>
      </trkpt>
      <trkpt lat="43.94853" lon="5.18064">
        <ele>605</ele>
        <time>2011-01-14T10:22:15Z</time>
      </trkpt>
      <trkpt lat="43.94852" lon="5.18064">
        <ele>607</ele>
        <time>2011-01-14T10:22:40Z</time>
      </trkpt>
      <trkpt lat="43.94853" lon="5.18063">
        <ele>607</ele>
        <time>2011-01-14T10:22:51Z</time>
      </trkpt>
      <trkpt lat="43.94853" lon="5.18062">
        <ele>607</ele>
        <time>2011-01-14T10:23:02Z</time>
      </trkpt>
      <trkpt lat="43.94854" lon="5.18067">
        <ele>607</ele>
        <time>2011-01-14T10:23:13Z</time>
      </trkpt>
      <trkpt lat="43.94853" lon="5.18066">
        <ele>610</ele>
        <time>2011-01-14T10:23:24Z</time>
      </trkpt>
      <trkpt lat="43.94853" lon="5.18064">
        <ele>606</ele>
        <time>2011-01-14T10:23:35Z</time>
      </trkpt>
      <trkpt lat="43.94856" lon="5.18069">
        <ele>605</ele>
        <time>2011-01-14T10:23:46Z</time>
      </trkpt>
      <trkpt lat="43.94857" lon="5.18068">
        <ele>605</ele>
        <time>2011-01-14T10:23:58Z</time>
      </trkpt>
      <trkpt lat="43.94855" lon="5.18066">
        <ele>605</ele>
        <time>2011-01-14T10:24:09Z</time>
      </trkpt>
      <trkpt lat="43.94856" lon="5.18062">
        <ele>603</ele>
        <time>2011-01-14T10:24:27Z</time>
      </trkpt>
      <trkpt lat="43.94854" lon="5.18058">
        <ele>606</ele>
        <time>2011-01-14T10:24:37Z</time>
      </trkpt>
      <trkpt lat="43.9485" lon="5.18062">
        <ele>613</ele>
        <time>2011-01-14T10:24:47Z</time>
      </trkpt>
      <trkpt lat="43.94854" lon="5.18067">
        <ele>616</ele>
        <time>2011-01-14T10:24:57Z</time>
      </trkpt>
      <trkpt lat="43.94854" lon="5.18069">
        <ele>618</ele>
        <time>2011-01-14T10:25:11Z</time>
      </trkpt>
      <trkpt lat="43.94853" lon="5.18067">
        <ele>619</ele>
        <time>2011-01-14T10:25:22Z</time>
      </trkpt>
      <trkpt lat="43.94851" lon="5.18062">
        <ele>617</ele>
        <time>2011-01-14T10:25:35Z</time>
      </trkpt>
      <trkpt lat="43.94845" lon="5.18075">
        <ele>598</ele>
        <time>2011-01-14T10:25:52Z</time>
      </trkpt>
      <trkpt lat="43.94845" lon="5.18083">
        <ele>599</ele>
        <time>2011-01-14T10:26:05Z</time>
      </trkpt>
      <trkpt lat="43.94847" lon="5.18078">
        <ele>605</ele>
        <time>2011-01-14T10:26:15Z</time>
      </trkpt>
      <trkpt lat="43.9485" lon="5.18072">
        <ele>613</ele>
        <time>2011-01-14T10:26:27Z</time>
      </trkpt>
      <trkpt lat="43.94853" lon="5.18071">
        <ele>614</ele>
        <time>2011-01-14T10:26:37Z</time>
      </trkpt>
      <trkpt lat="43.94854" lon="5.18076">
        <ele>612</ele>
        <time>2011-01-14T10:26:47Z</time>
      </trkpt>
      <trkpt lat="43.94857" lon="5.18074">
        <ele>611</ele>
        <time>2011-01-14T10:26:57Z</time>
      </trkpt>
      <trkpt lat="43.94854" lon="5.18068">
        <ele>611</ele>
        <time>2011-01-14T10:27:09Z</time>
      </trkpt>
      <trkpt lat="43.9485" lon="5.18072">
        <ele>609</ele>
        <time>2011-01-14T10:27:23Z</time>
      </trkpt>
      <trkpt lat="43.94859" lon="5.18075">
        <ele>615</ele>
        <time>2011-01-14T10:27:35Z</time>
      </trkpt>
      <trkpt lat="43.94851" lon="5.18074">
        <ele>613</ele>
        <time>2011-01-14T10:27:45Z</time>
      </trkpt>
      <trkpt lat="43.94851" lon="5.18077">
        <ele>610</ele>
        <time>2011-01-14T10:27:58Z</time>
      </trkpt>
      <trkpt lat="43.94851" lon="5.18079">
        <ele>615</ele>
        <time>2011-01-14T10:28:09Z</time>
      </trkpt>
      <trkpt lat="43.94852" lon="5.18081">
        <ele>616</ele>
        <time>2011-01-14T10:28:19Z</time>
      </trkpt>
      <trkpt lat="43.94855" lon="5.1808">
        <ele>623</ele>
        <time>2011-01-14T10:28:31Z</time>
      </trkpt>
      <trkpt lat="43.94854" lon="5.18081">
        <ele>623</ele>
        <time>2011-01-14T10:28:42Z</time>
      </trkpt>
      <trkpt lat="43.94857" lon="5.18079">
        <ele>623</ele>
        <time>2011-01-14T10:28:52Z</time>
      </trkpt>
      <trkpt lat="43.94848" lon="5.1808">
        <ele>616</ele>
        <time>2011-01-14T10:29:03Z</time>
      </trkpt>
      <trkpt lat="43.94848" lon="5.18074">
        <ele>606</ele>
        <time>2011-01-14T10:29:13Z</time>
      </trkpt>
      <trkpt lat="43.94851" lon="5.1807">
        <ele>606</ele>
        <time>2011-01-14T10:29:25Z</time>
      </trkpt>
      <trkpt lat="43.94854" lon="5.18067">
        <ele>610</ele>
        <time>2011-01-14T10:29:35Z</time>
      </trkpt>
      <trkpt lat="43.94857" lon="5.18079">
        <ele>603</ele>
        <time>2011-01-14T10:30:14Z</time>
      </trkpt>
      <trkpt lat="43.94849" lon="5.1806">
        <ele>600</ele>
        <time>2011-01-14T10:30:31Z</time>
      </trkpt>
      <trkpt lat="43.94849" lon="5.18064">
        <ele>607</ele>
        <time>2011-01-14T10:30:42Z</time>
      </trkpt>
      <trkpt lat="43.94849" lon="5.18063">
        <ele>615</ele>
        <time>2011-01-14T10:30:52Z</time>
      </trkpt>
      <trkpt lat="43.94849" lon="5.18064">
        <ele>613</ele>
        <time>2011-01-14T10:31:03Z</time>
      </trkpt>
      <trkpt lat="43.94849" lon="5.18067">
        <ele>613</ele>
        <time>2011-01-14T10:31:13Z</time>
      </trkpt>
      <trkpt lat="43.94851" lon="5.1807">
        <ele>613</ele>
        <time>2011-01-14T10:31:24Z</time>
      </trkpt>
      <trkpt lat="43.94851" lon="5.18068">
        <ele>613</ele>
        <time>2011-01-14T10:31:34Z</time>
      </trkpt>
      <trkpt lat="43.94853" lon="5.18063">
        <ele>610</ele>
        <time>2011-01-14T10:31:44Z</time>
      </trkpt>
      <trkpt lat="43.94852" lon="5.18064">
        <ele>610</ele>
        <time>2011-01-14T10:31:57Z</time>
      </trkpt>
      <trkpt lat="43.94852" lon="5.18068">
        <ele>609</ele>
        <time>2011-01-14T10:32:08Z</time>
      </trkpt>
      <trkpt lat="43.94849" lon="5.18069">
        <ele>609</ele>
        <time>2011-01-14T10:32:20Z</time>
      </trkpt>
      <trkpt lat="43.94849" lon="5.18062">
        <ele>609</ele>
        <time>2011-01-14T10:32:30Z</time>
      </trkpt>
      <trkpt lat="43.94846" lon="5.18066">
        <ele>609</ele>
        <time>2011-01-14T10:32:41Z</time>
      </trkpt>
      <trkpt lat="43.94848" lon="5.18066">
        <ele>611</ele>
        <time>2011-01-14T10:32:53Z</time>
      </trkpt>
      <trkpt lat="43.94854" lon="5.18069">
        <ele>614</ele>
        <time>2011-01-14T10:33:05Z</time>
      </trkpt>
      <trkpt lat="43.94853" lon="5.18066">
        <ele>608</ele>
        <time>2011-01-14T10:33:19Z</time>
      </trkpt>
      <trkpt lat="43.9485" lon="5.18071">
        <ele>608</ele>
        <time>2011-01-14T10:33:32Z</time>
      </trkpt>
      <trkpt lat="43.94854" lon="5.18072">
        <ele>610</ele>
        <time>2011-01-14T10:33:45Z</time>
      </trkpt>
      <trkpt lat="43.94853" lon="5.18069">
        <ele>612</ele>
        <time>2011-01-14T10:33:57Z</time>
      </trkpt>
      <trkpt lat="43.94849" lon="5.18062">
        <ele>612</ele>
        <time>2011-01-14T10:34:07Z</time>
      </trkpt>
      <trkpt lat="43.94852" lon="5.18064">
        <ele>613</ele>
        <time>2011-01-14T10:34:23Z</time>
      </trkpt>
      <trkpt lat="43.94847" lon="5.18065">
        <ele>615</ele>
        <time>2011-01-14T10:34:36Z</time>
      </trkpt>
      <trkpt lat="43.94851" lon="5.18065">
        <ele>615</ele>
        <time>2011-01-14T10:34:46Z</time>
      </trkpt>
      <trkpt lat="43.94851" lon="5.1806">
        <ele>606</ele>
        <time>2011-01-14T10:35:04Z</time>
      </trkpt>
      <trkpt lat="43.94849" lon="5.18064">
        <ele>607</ele>
        <time>2011-01-14T10:35:14Z</time>
      </trkpt>
      <trkpt lat="43.94848" lon="5.18065">
        <ele>606</ele>
        <time>2011-01-14T10:35:26Z</time>
      </trkpt>
      <trkpt lat="43.94854" lon="5.1807">
        <ele>603</ele>
        <time>2011-01-14T10:35:36Z</time>
      </trkpt>
      <trkpt lat="43.94862" lon="5.18075">
        <ele>602</ele>
        <time>2011-01-14T10:35:47Z</time>
      </trkpt>
      <trkpt lat="43.94869" lon="5.18079">
        <ele>601</ele>
        <time>2011-01-14T10:35:58Z</time>
      </trkpt>
      <trkpt lat="43.94876" lon="5.18081">
        <ele>601</ele>
        <time>2011-01-14T10:36:10Z</time>
      </trkpt>
      <trkpt lat="43.94886" lon="5.18083">
        <ele>601</ele>
        <time>2011-01-14T10:36:21Z</time>
      </trkpt>
      <trkpt lat="43.94896" lon="5.18086">
        <ele>601</ele>
        <time>2011-01-14T10:36:32Z</time>
      </trkpt>
      <trkpt lat="43.94904" lon="5.18088">
        <ele>601</ele>
        <time>2011-01-14T10:36:43Z</time>
      </trkpt>
      <trkpt lat="43.94911" lon="5.18089">
        <ele>601</ele>
        <time>2011-01-14T10:36:53Z</time>
      </trkpt>
      <trkpt lat="43.94919" lon="5.18089">
        <ele>601</ele>
        <time>2011-01-14T10:37:04Z</time>
      </trkpt>
      <trkpt lat="43.94926" lon="5.18092">
        <ele>601</ele>
        <time>2011-01-14T10:37:14Z</time>
      </trkpt>
      <trkpt lat="43.94933" lon="5.18096">
        <ele>601</ele>
        <time>2011-01-14T10:37:24Z</time>
      </trkpt>
      <trkpt lat="43.94944" lon="5.18099">
        <ele>601</ele>
        <time>2011-01-14T10:37:35Z</time>
      </trkpt>
      <trkpt lat="43.94954" lon="5.18104">
        <ele>601</ele>
        <time>2011-01-14T10:37:45Z</time>
      </trkpt>
      <trkpt lat="43.94962" lon="5.18104">
        <ele>603</ele>
        <time>2011-01-14T10:37:57Z</time>
      </trkpt>
      <trkpt lat="43.94973" lon="5.18105">
        <ele>605</ele>
        <time>2011-01-14T10:38:10Z</time>
      </trkpt>
      <trkpt lat="43.94982" lon="5.18108">
        <ele>606</ele>
        <time>2011-01-14T10:38:21Z</time>
      </trkpt>
      <trkpt lat="43.9499" lon="5.18109">
        <ele>606</ele>
        <time>2011-01-14T10:38:31Z</time>
      </trkpt>
      <trkpt lat="43.94998" lon="5.18111">
        <ele>606</ele>
        <time>2011-01-14T10:38:41Z</time>
      </trkpt>
      <trkpt lat="43.95008" lon="5.18112">
        <ele>605</ele>
        <time>2011-01-14T10:38:53Z</time>
      </trkpt>
      <trkpt lat="43.95019" lon="5.18111">
        <ele>604</ele>
        <time>2011-01-14T10:39:03Z</time>
      </trkpt>
      <trkpt lat="43.9503" lon="5.18111">
        <ele>604</ele>
        <time>2011-01-14T10:39:14Z</time>
      </trkpt>
      <trkpt lat="43.95037" lon="5.18114">
        <ele>604</ele>
        <time>2011-01-14T10:39:24Z</time>
      </trkpt>
      <trkpt lat="43.95047" lon="5.18115">
        <ele>604</ele>
        <time>2011-01-14T10:39:35Z</time>
      </trkpt>
      <trkpt lat="43.95056" lon="5.18117">
        <ele>604</ele>
        <time>2011-01-14T10:39:46Z</time>
      </trkpt>
      <trkpt lat="43.95066" lon="5.18115">
        <ele>604</ele>
        <time>2011-01-14T10:39:57Z</time>
      </trkpt>
      <trkpt lat="43.95075" lon="5.18113">
        <ele>604</ele>
        <time>2011-01-14T10:40:07Z</time>
      </trkpt>
      <trkpt lat="43.95084" lon="5.18113">
        <ele>604</ele>
        <time>2011-01-14T10:40:17Z</time>
      </trkpt>
      <trkpt lat="43.95096" lon="5.18115">
        <ele>604</ele>
        <time>2011-01-14T10:40:28Z</time>
      </trkpt>
      <trkpt lat="43.95104" lon="5.18114">
        <ele>604</ele>
        <time>2011-01-14T10:40:39Z</time>
      </trkpt>
      <trkpt lat="43.95115" lon="5.18115">
        <ele>604</ele>
        <time>2011-01-14T10:40:49Z</time>
      </trkpt>
      <trkpt lat="43.95123" lon="5.18115">
        <ele>604</ele>
        <time>2011-01-14T10:41:00Z</time>
      </trkpt>
      <trkpt lat="43.95131" lon="5.18112">
        <ele>604</ele>
        <time>2011-01-14T10:41:11Z</time>
      </trkpt>
      <trkpt lat="43.95135" lon="5.18111">
        <ele>607</ele>
        <time>2011-01-14T10:41:21Z</time>
      </trkpt>
      <trkpt lat="43.95145" lon="5.18112">
        <ele>607</ele>
        <time>2011-01-14T10:41:33Z</time>
      </trkpt>
      <trkpt lat="43.9516" lon="5.18114">
        <ele>607</ele>
        <time>2011-01-14T10:41:45Z</time>
      </trkpt>
      <trkpt lat="43.95171" lon="5.18114">
        <ele>607</ele>
        <time>2011-01-14T10:41:58Z</time>
      </trkpt>
      <trkpt lat="43.95181" lon="5.18115">
        <ele>607</ele>
        <time>2011-01-14T10:42:08Z</time>
      </trkpt>
      <trkpt lat="43.95192" lon="5.18116">
        <ele>607</ele>
        <time>2011-01-14T10:42:20Z</time>
      </trkpt>
      <trkpt lat="43.95201" lon="5.18115">
        <ele>605</ele>
        <time>2011-01-14T10:42:32Z</time>
      </trkpt>
      <trkpt lat="43.95211" lon="5.18114">
        <ele>605</ele>
        <time>2011-01-14T10:42:43Z</time>
      </trkpt>
      <trkpt lat="43.9522" lon="5.18116">
        <ele>605</ele>
        <time>2011-01-14T10:42:54Z</time>
      </trkpt>
      <trkpt lat="43.95226" lon="5.18121">
        <ele>605</ele>
        <time>2011-01-14T10:43:05Z</time>
      </trkpt>
      <trkpt lat="43.95229" lon="5.18133">
        <ele>605</ele>
        <time>2011-01-14T10:43:17Z</time>
      </trkpt>
      <trkpt lat="43.95227" lon="5.18147">
        <ele>605</ele>
        <time>2011-01-14T10:43:28Z</time>
      </trkpt>
      <trkpt lat="43.95225" lon="5.18162">
        <ele>605</ele>
        <time>2011-01-14T10:43:39Z</time>
      </trkpt>
      <trkpt lat="43.95222" lon="5.18176">
        <ele>605</ele>
        <time>2011-01-14T10:43:50Z</time>
      </trkpt>
      <trkpt lat="43.95221" lon="5.18189">
        <ele>605</ele>
        <time>2011-01-14T10:44:00Z</time>
      </trkpt>
      <trkpt lat="43.9522" lon="5.18203">
        <ele>605</ele>
        <time>2011-01-14T10:44:11Z</time>
      </trkpt>
      <trkpt lat="43.95219" lon="5.18218">
        <ele>605</ele>
        <time>2011-01-14T10:44:22Z</time>
      </trkpt>
      <trkpt lat="43.95219" lon="5.18231">
        <ele>605</ele>
        <time>2011-01-14T10:44:32Z</time>
      </trkpt>
      <trkpt lat="43.95218" lon="5.18246">
        <ele>606</ele>
        <time>2011-01-14T10:44:42Z</time>
      </trkpt>
      <trkpt lat="43.95218" lon="5.18261">
        <ele>606</ele>
        <time>2011-01-14T10:44:53Z</time>
      </trkpt>
      <trkpt lat="43.95215" lon="5.18276">
        <ele>606</ele>
        <time>2011-01-14T10:45:04Z</time>
      </trkpt>
      <trkpt lat="43.95211" lon="5.18291">
        <ele>606</ele>
        <time>2011-01-14T10:45:14Z</time>
      </trkpt>
      <trkpt lat="43.95208" lon="5.18303">
        <ele>607</ele>
        <time>2011-01-14T10:45:24Z</time>
      </trkpt>
      <trkpt lat="43.95205" lon="5.18317">
        <ele>607</ele>
        <time>2011-01-14T10:45:35Z</time>
      </trkpt>
      <trkpt lat="43.95203" lon="5.1833">
        <ele>608</ele>
        <time>2011-01-14T10:45:45Z</time>
      </trkpt>
      <trkpt lat="43.95201" lon="5.18345">
        <ele>610</ele>
        <time>2011-01-14T10:45:55Z</time>
      </trkpt>
      <trkpt lat="43.95199" lon="5.18361">
        <ele>610</ele>
        <time>2011-01-14T10:46:05Z</time>
      </trkpt>
      <trkpt lat="43.95194" lon="5.18378">
        <ele>611</ele>
        <time>2011-01-14T10:46:17Z</time>
      </trkpt>
      <trkpt lat="43.95189" lon="5.18392">
        <ele>611</ele>
        <time>2011-01-14T10:46:28Z</time>
      </trkpt>
      <trkpt lat="43.95184" lon="5.18405">
        <ele>611</ele>
        <time>2011-01-14T10:46:39Z</time>
      </trkpt>
      <trkpt lat="43.95181" lon="5.18419">
        <ele>611</ele>
        <time>2011-01-14T10:46:49Z</time>
      </trkpt>
      <trkpt lat="43.95177" lon="5.18433">
        <ele>612</ele>
        <time>2011-01-14T10:47:00Z</time>
      </trkpt>
      <trkpt lat="43.95177" lon="5.18437">
        <ele>612</ele>
        <time>2011-01-14T10:47:11Z</time>
      </trkpt>
      <trkpt lat="43.95176" lon="5.18447">
        <ele>612</ele>
        <time>2011-01-14T10:47:21Z</time>
      </trkpt>
      <trkpt lat="43.95175" lon="5.1846">
        <ele>612</ele>
        <time>2011-01-14T10:47:32Z</time>
      </trkpt>
      <trkpt lat="43.95175" lon="5.18474">
        <ele>612</ele>
        <time>2011-01-14T10:47:44Z</time>
      </trkpt>
      <trkpt lat="43.95174" lon="5.18486">
        <ele>612</ele>
        <time>2011-01-14T10:47:54Z</time>
      </trkpt>
      <trkpt lat="43.95174" lon="5.18497">
        <ele>612</ele>
        <time>2011-01-14T10:49:18Z</time>
      </trkpt>
      <trkpt lat="43.95173" lon="5.18505">
        <ele>612</ele>
        <time>2011-01-14T10:49:29Z</time>
      </trkpt>
      <trkpt lat="43.95174" lon="5.1851">
        <ele>612</ele>
        <time>2011-01-14T10:49:42Z</time>
      </trkpt>
      <trkpt lat="43.95173" lon="5.1851">
        <ele>612</ele>
        <time>2011-01-14T10:49:52Z</time>
      </trkpt>
      <trkpt lat="43.95167" lon="5.18507">
        <ele>612</ele>
        <time>2011-01-14T10:50:06Z</time>
      </trkpt>
      <trkpt lat="43.95168" lon="5.18505">
        <ele>612</ele>
        <time>2011-01-14T10:50:17Z</time>
      </trkpt>
      <trkpt lat="43.95172" lon="5.18506">
        <ele>612</ele>
        <time>2011-01-14T10:50:32Z</time>
      </trkpt>
      <trkpt lat="43.95173" lon="5.18508">
        <ele>613</ele>
        <time>2011-01-14T10:51:03Z</time>
      </trkpt>
      <trkpt lat="43.95171" lon="5.18509">
        <ele>613</ele>
        <time>2011-01-14T10:51:56Z</time>
      </trkpt>
      <trkpt lat="43.9517" lon="5.18509">
        <ele>613</ele>
        <time>2011-01-14T10:52:52Z</time>
      </trkpt>
      <trkpt lat="43.95165" lon="5.18504">
        <ele>613</ele>
        <time>2011-01-14T10:53:03Z</time>
      </trkpt>
      <trkpt lat="43.95158" lon="5.18498">
        <ele>613</ele>
        <time>2011-01-14T10:53:13Z</time>
      </trkpt>
      <trkpt lat="43.9515" lon="5.18494">
        <ele>613</ele>
        <time>2011-01-14T10:53:23Z</time>
      </trkpt>
      <trkpt lat="43.95142" lon="5.18491">
        <ele>613</ele>
        <time>2011-01-14T10:53:33Z</time>
      </trkpt>
      <trkpt lat="43.95135" lon="5.18485">
        <ele>613</ele>
        <time>2011-01-14T10:53:43Z</time>
      </trkpt>
      <trkpt lat="43.95128" lon="5.18478">
        <ele>613</ele>
        <time>2011-01-14T10:53:53Z</time>
      </trkpt>
      <trkpt lat="43.95119" lon="5.18472">
        <ele>613</ele>
        <time>2011-01-14T10:54:03Z</time>
      </trkpt>
      <trkpt lat="43.9511" lon="5.18469">
        <ele>613</ele>
        <time>2011-01-14T10:54:13Z</time>
      </trkpt>
      <trkpt lat="43.95102" lon="5.18467">
        <ele>613</ele>
        <time>2011-01-14T10:54:23Z</time>
      </trkpt>
      <trkpt lat="43.95094" lon="5.18462">
        <ele>613</ele>
        <time>2011-01-14T10:54:33Z</time>
      </trkpt>
      <trkpt lat="43.95087" lon="5.18458">
        <ele>611</ele>
        <time>2011-01-14T10:54:43Z</time>
      </trkpt>
      <trkpt lat="43.95078" lon="5.18455">
        <ele>611</ele>
        <time>2011-01-14T10:54:53Z</time>
      </trkpt>
      <trkpt lat="43.95068" lon="5.18455">
        <ele>611</ele>
        <time>2011-01-14T10:55:03Z</time>
      </trkpt>
      <trkpt lat="43.9506" lon="5.18454">
        <ele>610</ele>
        <time>2011-01-14T10:55:13Z</time>
      </trkpt>
      <trkpt lat="43.95056" lon="5.18453">
        <ele>608</ele>
        <time>2011-01-14T10:55:28Z</time>
      </trkpt>
      <trkpt lat="43.95058" lon="5.18451">
        <ele>608</ele>
        <time>2011-01-14T10:55:46Z</time>
      </trkpt>
      <trkpt lat="43.95058" lon="5.1845">
        <ele>608</ele>
        <time>2011-01-14T10:55:58Z</time>
      </trkpt>
      <trkpt lat="43.95057" lon="5.18452">
        <ele>609</ele>
        <time>2011-01-14T10:56:17Z</time>
      </trkpt>
      <trkpt lat="43.95058" lon="5.18449">
        <ele>610</ele>
        <time>2011-01-14T10:56:37Z</time>
      </trkpt>
      <trkpt lat="43.9506" lon="5.18441">
        <ele>610</ele>
        <time>2011-01-14T10:56:47Z</time>
      </trkpt>
      <trkpt lat="43.95061" lon="5.18434">
        <ele>610</ele>
        <time>2011-01-14T10:56:57Z</time>
      </trkpt>
      <trkpt lat="43.95061" lon="5.18415">
        <ele>610</ele>
        <time>2011-01-14T10:57:07Z</time>
      </trkpt>
      <trkpt lat="43.95062" lon="5.18402">
        <ele>610</ele>
        <time>2011-01-14T10:57:17Z</time>
      </trkpt>
      <trkpt lat="43.95064" lon="5.18391">
        <ele>610</ele>
        <time>2011-01-14T10:57:27Z</time>
      </trkpt>
      <trkpt lat="43.95067" lon="5.18377">
        <ele>610</ele>
        <time>2011-01-14T10:57:37Z</time>
      </trkpt>
      <trkpt lat="43.9507" lon="5.18363">
        <ele>610</ele>
        <time>2011-01-14T10:57:48Z</time>
      </trkpt>
      <trkpt lat="43.95069" lon="5.18347">
        <ele>610</ele>
        <time>2011-01-14T10:57:58Z</time>
      </trkpt>
      <trkpt lat="43.95071" lon="5.18331">
        <ele>610</ele>
        <time>2011-01-14T10:58:08Z</time>
      </trkpt>
      <trkpt lat="43.95072" lon="5.18312">
        <ele>610</ele>
        <time>2011-01-14T10:58:19Z</time>
      </trkpt>
      <trkpt lat="43.95074" lon="5.18296">
        <ele>610</ele>
        <time>2011-01-14T10:58:29Z</time>
      </trkpt>
      <trkpt lat="43.95076" lon="5.18279">
        <ele>610</ele>
        <time>2011-01-14T10:58:39Z</time>
      </trkpt>
      <trkpt lat="43.95078" lon="5.18265">
        <ele>610</ele>
        <time>2011-01-14T10:58:49Z</time>
      </trkpt>
      <trkpt lat="43.9508" lon="5.18248">
        <ele>610</ele>
        <time>2011-01-14T10:59:00Z</time>
      </trkpt>
      <trkpt lat="43.95082" lon="5.18231">
        <ele>609</ele>
        <time>2011-01-14T10:59:10Z</time>
      </trkpt>
      <trkpt lat="43.95085" lon="5.18216">
        <ele>609</ele>
        <time>2011-01-14T10:59:20Z</time>
      </trkpt>
      <trkpt lat="43.95086" lon="5.18199">
        <ele>608</ele>
        <time>2011-01-14T10:59:30Z</time>
      </trkpt>
      <trkpt lat="43.95087" lon="5.18185">
        <ele>608</ele>
        <time>2011-01-14T10:59:40Z</time>
      </trkpt>
      <trkpt lat="43.95091" lon="5.18168">
        <ele>608</ele>
        <time>2011-01-14T10:59:50Z</time>
      </trkpt>
      <trkpt lat="43.95093" lon="5.18153">
        <ele>608</ele>
        <time>2011-01-14T11:00:00Z</time>
      </trkpt>
      <trkpt lat="43.95093" lon="5.18136">
        <ele>608</ele>
        <time>2011-01-14T11:00:10Z</time>
      </trkpt>
      <trkpt lat="43.95092" lon="5.1812">
        <ele>608</ele>
        <time>2011-01-14T11:00:21Z</time>
      </trkpt>
      <trkpt lat="43.95079" lon="5.18119">
        <ele>608</ele>
        <time>2011-01-14T11:00:31Z</time>
      </trkpt>
      <trkpt lat="43.95066" lon="5.18121">
        <ele>608</ele>
        <time>2011-01-14T11:00:41Z</time>
      </trkpt>
      <trkpt lat="43.95052" lon="5.18121">
        <ele>608</ele>
        <time>2011-01-14T11:00:52Z</time>
      </trkpt>
      <trkpt lat="43.95042" lon="5.1812">
        <ele>608</ele>
        <time>2011-01-14T11:01:02Z</time>
      </trkpt>
      <trkpt lat="43.95031" lon="5.18117">
        <ele>606</ele>
        <time>2011-01-14T11:01:13Z</time>
      </trkpt>
      <trkpt lat="43.95019" lon="5.18118">
        <ele>605</ele>
        <time>2011-01-14T11:01:24Z</time>
      </trkpt>
      <trkpt lat="43.95007" lon="5.18118">
        <ele>605</ele>
        <time>2011-01-14T11:01:34Z</time>
      </trkpt>
      <trkpt lat="43.94994" lon="5.18114">
        <ele>605</ele>
        <time>2011-01-14T11:01:45Z</time>
      </trkpt>
      <trkpt lat="43.94984" lon="5.18113">
        <ele>605</ele>
        <time>2011-01-14T11:01:55Z</time>
      </trkpt>
      <trkpt lat="43.94973" lon="5.18113">
        <ele>605</ele>
        <time>2011-01-14T11:02:06Z</time>
      </trkpt>
      <trkpt lat="43.94962" lon="5.18112">
        <ele>605</ele>
        <time>2011-01-14T11:02:16Z</time>
      </trkpt>
      <trkpt lat="43.94953" lon="5.1811">
        <ele>605</ele>
        <time>2011-01-14T11:02:26Z</time>
      </trkpt>
      <trkpt lat="43.94942" lon="5.18106">
        <ele>604</ele>
        <time>2011-01-14T11:02:36Z</time>
      </trkpt>
      <trkpt lat="43.94931" lon="5.18099">
        <ele>602</ele>
        <time>2011-01-14T11:02:47Z</time>
      </trkpt>
      <trkpt lat="43.94919" lon="5.18094">
        <ele>601</ele>
        <time>2011-01-14T11:02:57Z</time>
      </trkpt>
      <trkpt lat="43.94908" lon="5.18095">
        <ele>601</ele>
        <time>2011-01-14T11:03:07Z</time>
      </trkpt>
      <trkpt lat="43.94897" lon="5.18091">
        <ele>601</ele>
        <time>2011-01-14T11:03:18Z</time>
      </trkpt>
      <trkpt lat="43.94886" lon="5.1809">
        <ele>601</ele>
        <time>2011-01-14T11:03:28Z</time>
      </trkpt>
      <trkpt lat="43.94876" lon="5.18086">
        <ele>601</ele>
        <time>2011-01-14T11:03:38Z</time>
      </trkpt>
      <trkpt lat="43.94864" lon="5.18082">
        <ele>600</ele>
        <time>2011-01-14T11:03:48Z</time>
      </trkpt>
      <trkpt lat="43.94857" lon="5.18076">
        <ele>599</ele>
        <time>2011-01-14T11:03:58Z</time>
      </trkpt>
      <trkpt lat="43.94851" lon="5.18071">
        <ele>599</ele>
        <time>2011-01-14T11:04:11Z</time>
      </trkpt>
      <trkpt lat="43.94849" lon="5.18068">
        <ele>599</ele>
        <time>2011-01-14T11:04:21Z</time>
      </trkpt>
      <trkpt lat="43.94846" lon="5.18064">
        <ele>599</ele>
        <time>2011-01-14T11:04:32Z</time>
      </trkpt>
      <trkpt lat="43.94847" lon="5.18057">
        <ele>599</ele>
        <time>2011-01-14T11:04:44Z</time>
      </trkpt>
      <trkpt lat="43.94851" lon="5.18056">
        <ele>599</ele>
        <time>2011-01-14T11:04:54Z</time>
      </trkpt>
      <trkpt lat="43.94845" lon="5.18062">
        <ele>605</ele>
        <time>2011-01-14T11:05:22Z</time>
      </trkpt>
      <trkpt lat="43.94844" lon="5.18061">
        <ele>605</ele>
        <time>2011-01-14T11:05:32Z</time>
      </trkpt>
      <trkpt lat="43.94835" lon="5.18067">
        <ele>601</ele>
        <time>2011-01-14T11:05:43Z</time>
      </trkpt>
      <trkpt lat="43.94826" lon="5.18075">
        <ele>598</ele>
        <time>2011-01-14T11:05:54Z</time>
      </trkpt>
      <trkpt lat="43.94818" lon="5.18081">
        <ele>596</ele>
        <time>2011-01-14T11:06:04Z</time>
      </trkpt>
      <trkpt lat="43.94807" lon="5.18083">
        <ele>594</ele>
        <time>2011-01-14T11:06:15Z</time>
      </trkpt>
      <trkpt lat="43.94801" lon="5.18088">
        <ele>585</ele>
        <time>2011-01-14T11:06:25Z</time>
      </trkpt>
      <trkpt lat="43.94791" lon="5.18094">
        <ele>581</ele>
        <time>2011-01-14T11:06:35Z</time>
      </trkpt>
      <trkpt lat="43.9478" lon="5.18095">
        <ele>580</ele>
        <time>2011-01-14T11:06:46Z</time>
      </trkpt>
      <trkpt lat="43.94769" lon="5.18097">
        <ele>576</ele>
        <time>2011-01-14T11:06:57Z</time>
      </trkpt>
      <trkpt lat="43.9476" lon="5.18098">
        <ele>572</ele>
        <time>2011-01-14T11:07:07Z</time>
      </trkpt>
      <trkpt lat="43.94749" lon="5.181">
        <ele>569</ele>
        <time>2011-01-14T11:07:17Z</time>
      </trkpt>
      <trkpt lat="43.94736" lon="5.18103">
        <ele>569</ele>
        <time>2011-01-14T11:07:27Z</time>
      </trkpt>
      <trkpt lat="43.94725" lon="5.18105">
        <ele>569</ele>
        <time>2011-01-14T11:07:37Z</time>
      </trkpt>
      <trkpt lat="43.94715" lon="5.18104">
        <ele>569</ele>
        <time>2011-01-14T11:07:47Z</time>
      </trkpt>
      <trkpt lat="43.94704" lon="5.18101">
        <ele>569</ele>
        <time>2011-01-14T11:07:57Z</time>
      </trkpt>
      <trkpt lat="43.94691" lon="5.18095">
        <ele>569</ele>
        <time>2011-01-14T11:08:08Z</time>
      </trkpt>
      <trkpt lat="43.9468" lon="5.18093">
        <ele>567</ele>
        <time>2011-01-14T11:08:18Z</time>
      </trkpt>
      <trkpt lat="43.94668" lon="5.18089">
        <ele>567</ele>
        <time>2011-01-14T11:08:29Z</time>
      </trkpt>
      <trkpt lat="43.94654" lon="5.18093">
        <ele>567</ele>
        <time>2011-01-14T11:08:40Z</time>
      </trkpt>
      <trkpt lat="43.94643" lon="5.18093">
        <ele>567</ele>
        <time>2011-01-14T11:08:50Z</time>
      </trkpt>
      <trkpt lat="43.94631" lon="5.18093">
        <ele>567</ele>
        <time>2011-01-14T11:09:00Z</time>
      </trkpt>
      <trkpt lat="43.9462" lon="5.18092">
        <ele>566</ele>
        <time>2011-01-14T11:09:10Z</time>
      </trkpt>
      <trkpt lat="43.94608" lon="5.18093">
        <ele>563</ele>
        <time>2011-01-14T11:09:20Z</time>
      </trkpt>
      <trkpt lat="43.94597" lon="5.18094">
        <ele>561</ele>
        <time>2011-01-14T11:09:30Z</time>
      </trkpt>
      <trkpt lat="43.94585" lon="5.18095">
        <ele>559</ele>
        <time>2011-01-14T11:09:40Z</time>
      </trkpt>
      <trkpt lat="43.94572" lon="5.18094">
        <ele>559</ele>
        <time>2011-01-14T11:09:51Z</time>
      </trkpt>
      <trkpt lat="43.9456" lon="5.18094">
        <ele>558</ele>
        <time>2011-01-14T11:10:01Z</time>
      </trkpt>
      <trkpt lat="43.94546" lon="5.18096">
        <ele>558</ele>
        <time>2011-01-14T11:10:11Z</time>
      </trkpt>
      <trkpt lat="43.94533" lon="5.18099">
        <ele>558</ele>
        <time>2011-01-14T11:10:21Z</time>
      </trkpt>
      <trkpt lat="43.94521" lon="5.18101">
        <ele>558</ele>
        <time>2011-01-14T11:10:31Z</time>
      </trkpt>
      <trkpt lat="43.94502" lon="5.18101">
        <ele>566</ele>
        <time>2011-01-14T11:10:41Z</time>
      </trkpt>
      <trkpt lat="43.9449" lon="5.18102">
        <ele>572</ele>
        <time>2011-01-14T11:10:51Z</time>
      </trkpt>
      <trkpt lat="43.94479" lon="5.18102">
        <ele>573</ele>
        <time>2011-01-14T11:11:01Z</time>
      </trkpt>
      <trkpt lat="43.94465" lon="5.18098">
        <ele>576</ele>
        <time>2011-01-14T11:11:11Z</time>
      </trkpt>
      <trkpt lat="43.94455" lon="5.18095">
        <ele>577</ele>
        <time>2011-01-14T11:11:21Z</time>
      </trkpt>
      <trkpt lat="43.94446" lon="5.18096">
        <ele>585</ele>
        <time>2011-01-14T11:11:33Z</time>
      </trkpt>
      <trkpt lat="43.94446" lon="5.18094">
        <ele>589</ele>
        <time>2011-01-14T11:11:51Z</time>
      </trkpt>
      <trkpt lat="43.94445" lon="5.18094">
        <ele>589</ele>
        <time>2011-01-14T11:12:08Z</time>
      </trkpt>
      <trkpt lat="43.94434" lon="5.18091">
        <ele>589</ele>
        <time>2011-01-14T11:12:18Z</time>
      </trkpt>
      <trkpt lat="43.94423" lon="5.18085">
        <ele>589</ele>
        <time>2011-01-14T11:12:28Z</time>
      </trkpt>
      <trkpt lat="43.94412" lon="5.18078">
        <ele>589</ele>
        <time>2011-01-14T11:12:38Z</time>
      </trkpt>
      <trkpt lat="43.94402" lon="5.18069">
        <ele>589</ele>
        <time>2011-01-14T11:12:49Z</time>
      </trkpt>
      <trkpt lat="43.94392" lon="5.18059">
        <ele>588</ele>
        <time>2011-01-14T11:12:59Z</time>
      </trkpt>
      <trkpt lat="43.94378" lon="5.18052">
        <ele>588</ele>
        <time>2011-01-14T11:13:09Z</time>
      </trkpt>
      <trkpt lat="43.94373" lon="5.18054">
        <ele>588</ele>
        <time>2011-01-14T11:13:22Z</time>
      </trkpt>
      <trkpt lat="43.94382" lon="5.18052">
        <ele>588</ele>
        <time>2011-01-14T11:13:32Z</time>
      </trkpt>
      <trkpt lat="43.9439" lon="5.1806">
        <ele>588</ele>
        <time>2011-01-14T11:13:42Z</time>
      </trkpt>
      <trkpt lat="43.944" lon="5.18063">
        <ele>588</ele>
        <time>2011-01-14T11:13:52Z</time>
      </trkpt>
      <trkpt lat="43.9441" lon="5.18055">
        <ele>588</ele>
        <time>2011-01-14T11:14:03Z</time>
      </trkpt>
      <trkpt lat="43.94411" lon="5.18053">
        <ele>590</ele>
        <time>2011-01-14T11:14:17Z</time>
      </trkpt>
      <trkpt lat="43.94412" lon="5.18052">
        <ele>591</ele>
        <time>2011-01-14T11:14:53Z</time>
      </trkpt>
      <trkpt lat="43.94411" lon="5.18053">
        <ele>591</ele>
        <time>2011-01-14T11:15:05Z</time>
      </trkpt>
      <trkpt lat="43.94414" lon="5.18059">
        <ele>596</ele>
        <time>2011-01-14T11:16:53Z</time>
      </trkpt>
      <trkpt lat="43.94412" lon="5.18055">
        <ele>596</ele>
        <time>2011-01-14T11:17:03Z</time>
      </trkpt>
      <trkpt lat="43.94411" lon="5.18056">
        <ele>596</ele>
        <time>2011-01-14T11:17:20Z</time>
      </trkpt>
      <trkpt lat="43.94413" lon="5.18058">
        <ele>594</ele>
        <time>2011-01-14T11:17:33Z</time>
      </trkpt>
      <trkpt lat="43.94418" lon="5.18062">
        <ele>593</ele>
        <time>2011-01-14T11:17:44Z</time>
      </trkpt>
      <trkpt lat="43.94424" lon="5.18069">
        <ele>590</ele>
        <time>2011-01-14T11:17:55Z</time>
      </trkpt>
      <trkpt lat="43.94432" lon="5.18078">
        <ele>589</ele>
        <time>2011-01-14T11:18:05Z</time>
      </trkpt>
      <trkpt lat="43.94439" lon="5.18089">
        <ele>589</ele>
        <time>2011-01-14T11:18:15Z</time>
      </trkpt>
      <trkpt lat="43.94446" lon="5.18103">
        <ele>589</ele>
        <time>2011-01-14T11:18:26Z</time>
      </trkpt>
      <trkpt lat="43.9445" lon="5.18118">
        <ele>589</ele>
        <time>2011-01-14T11:18:37Z</time>
      </trkpt>
      <trkpt lat="43.94448" lon="5.18129">
        <ele>589</ele>
        <time>2011-01-14T11:18:47Z</time>
      </trkpt>
      <trkpt lat="43.9444" lon="5.18141">
        <ele>589</ele>
        <time>2011-01-14T11:18:58Z</time>
      </trkpt>
      <trkpt lat="43.94416" lon="5.18154">
        <ele>589</ele>
        <time>2011-01-14T11:19:37Z</time>
      </trkpt>
      <trkpt lat="43.94408" lon="5.18143">
        <ele>582</ele>
        <time>2011-01-14T11:19:49Z</time>
      </trkpt>
      <trkpt lat="43.94386" lon="5.18167">
        <ele>581</ele>
        <time>2011-01-14T11:19:59Z</time>
      </trkpt>
      <trkpt lat="43.94372" lon="5.18177">
        <ele>581</ele>
        <time>2011-01-14T11:20:09Z</time>
      </trkpt>
      <trkpt lat="43.94366" lon="5.1818">
        <ele>581</ele>
        <time>2011-01-14T11:20:19Z</time>
      </trkpt>
      <trkpt lat="43.94357" lon="5.1818">
        <ele>581</ele>
        <time>2011-01-14T11:20:29Z</time>
      </trkpt>
      <trkpt lat="43.9435" lon="5.18179">
        <ele>581</ele>
        <time>2011-01-14T11:20:39Z</time>
      </trkpt>
      <trkpt lat="43.94344" lon="5.18181">
        <ele>581</ele>
        <time>2011-01-14T11:20:49Z</time>
      </trkpt>
      <trkpt lat="43.94333" lon="5.18185">
        <ele>581</ele>
        <time>2011-01-14T11:21:00Z</time>
      </trkpt>
      <trkpt lat="43.94324" lon="5.18186">
        <ele>581</ele>
        <time>2011-01-14T11:21:10Z</time>
      </trkpt>
      <trkpt lat="43.94316" lon="5.18188">
        <ele>577</ele>
        <time>2011-01-14T11:21:20Z</time>
      </trkpt>
      <trkpt lat="43.94307" lon="5.18193">
        <ele>574</ele>
        <time>2011-01-14T11:21:32Z</time>
      </trkpt>
      <trkpt lat="43.943" lon="5.18198">
        <ele>572</ele>
        <time>2011-01-14T11:21:42Z</time>
      </trkpt>
      <trkpt lat="43.94293" lon="5.18201">
        <ele>572</ele>
        <time>2011-01-14T11:21:52Z</time>
      </trkpt>
      <trkpt lat="43.94285" lon="5.18203">
        <ele>569</ele>
        <time>2011-01-14T11:22:02Z</time>
      </trkpt>
      <trkpt lat="43.94276" lon="5.18208">
        <ele>569</ele>
        <time>2011-01-14T11:22:12Z</time>
      </trkpt>
      <trkpt lat="43.94268" lon="5.18213">
        <ele>566</ele>
        <time>2011-01-14T11:22:22Z</time>
      </trkpt>
      <trkpt lat="43.94255" lon="5.18219">
        <ele>566</ele>
        <time>2011-01-14T11:22:33Z</time>
      </trkpt>
      <trkpt lat="43.94244" lon="5.18224">
        <ele>566</ele>
        <time>2011-01-14T11:22:43Z</time>
      </trkpt>
      <trkpt lat="43.94236" lon="5.18229">
        <ele>566</ele>
        <time>2011-01-14T11:22:53Z</time>
      </trkpt>
      <trkpt lat="43.94225" lon="5.18233">
        <ele>566</ele>
        <time>2011-01-14T11:23:04Z</time>
      </trkpt>
      <trkpt lat="43.94215" lon="5.18234">
        <ele>566</ele>
        <time>2011-01-14T11:23:14Z</time>
      </trkpt>
      <trkpt lat="43.94201" lon="5.18234">
        <ele>565</ele>
        <time>2011-01-14T11:23:25Z</time>
      </trkpt>
      <trkpt lat="43.94192" lon="5.18234">
        <ele>562</ele>
        <time>2011-01-14T11:23:35Z</time>
      </trkpt>
      <trkpt lat="43.94183" lon="5.18236">
        <ele>560</ele>
        <time>2011-01-14T11:23:45Z</time>
      </trkpt>
      <trkpt lat="43.94175" lon="5.1824">
        <ele>559</ele>
        <time>2011-01-14T11:23:55Z</time>
      </trkpt>
      <trkpt lat="43.94166" lon="5.18238">
        <ele>559</ele>
        <time>2011-01-14T11:24:05Z</time>
      </trkpt>
      <trkpt lat="43.94157" lon="5.18237">
        <ele>559</ele>
        <time>2011-01-14T11:24:15Z</time>
      </trkpt>
      <trkpt lat="43.94146" lon="5.1824">
        <ele>559</ele>
        <time>2011-01-14T11:24:25Z</time>
      </trkpt>
      <trkpt lat="43.94138" lon="5.18241">
        <ele>559</ele>
        <time>2011-01-14T11:24:36Z</time>
      </trkpt>
      <trkpt lat="43.94129" lon="5.18243">
        <ele>559</ele>
        <time>2011-01-14T11:24:46Z</time>
      </trkpt>
      <trkpt lat="43.94119" lon="5.18244">
        <ele>558</ele>
        <time>2011-01-14T11:24:57Z</time>
      </trkpt>
      <trkpt lat="43.94109" lon="5.18244">
        <ele>557</ele>
        <time>2011-01-14T11:25:08Z</time>
      </trkpt>
      <trkpt lat="43.94098" lon="5.18239">
        <ele>557</ele>
        <time>2011-01-14T11:25:19Z</time>
      </trkpt>
      <trkpt lat="43.94085" lon="5.18238">
        <ele>557</ele>
        <time>2011-01-14T11:25:30Z</time>
      </trkpt>
      <trkpt lat="43.94075" lon="5.18237">
        <ele>557</ele>
        <time>2011-01-14T11:25:40Z</time>
      </trkpt>
      <trkpt lat="43.94065" lon="5.18237">
        <ele>557</ele>
        <time>2011-01-14T11:25:50Z</time>
      </trkpt>
      <trkpt lat="43.94054" lon="5.18239">
        <ele>556</ele>
        <time>2011-01-14T11:26:00Z</time>
      </trkpt>
      <trkpt lat="43.94041" lon="5.18242">
        <ele>555</ele>
        <time>2011-01-14T11:26:11Z</time>
      </trkpt>
      <trkpt lat="43.9403" lon="5.18248">
        <ele>555</ele>
        <time>2011-01-14T11:26:21Z</time>
      </trkpt>
      <trkpt lat="43.94017" lon="5.18251">
        <ele>554</ele>
        <time>2011-01-14T11:26:31Z</time>
      </trkpt>
      <trkpt lat="43.94009" lon="5.18253">
        <ele>554</ele>
        <time>2011-01-14T11:26:42Z</time>
      </trkpt>
      <trkpt lat="43.94002" lon="5.1825">
        <ele>554</ele>
        <time>2011-01-14T11:26:53Z</time>
      </trkpt>
      <trkpt lat="43.93994" lon="5.18254">
        <ele>554</ele>
        <time>2011-01-14T11:27:04Z</time>
      </trkpt>
      <trkpt lat="43.93985" lon="5.18257">
        <ele>554</ele>
        <time>2011-01-14T11:27:15Z</time>
      </trkpt>
      <trkpt lat="43.93977" lon="5.1826">
        <ele>555</ele>
        <time>2011-01-14T11:27:26Z</time>
      </trkpt>
      <trkpt lat="43.93966" lon="5.18265">
        <ele>558</ele>
        <time>2011-01-14T11:27:36Z</time>
      </trkpt>
      <trkpt lat="43.93956" lon="5.18264">
        <ele>559</ele>
        <time>2011-01-14T11:27:46Z</time>
      </trkpt>
      <trkpt lat="43.93947" lon="5.18259">
        <ele>559</ele>
        <time>2011-01-14T11:27:56Z</time>
      </trkpt>
      <trkpt lat="43.93937" lon="5.18256">
        <ele>558</ele>
        <time>2011-01-14T11:28:07Z</time>
      </trkpt>
      <trkpt lat="43.93927" lon="5.18258">
        <ele>558</ele>
        <time>2011-01-14T11:28:17Z</time>
      </trkpt>
      <trkpt lat="43.93914" lon="5.18259">
        <ele>558</ele>
        <time>2011-01-14T11:28:28Z</time>
      </trkpt>
      <trkpt lat="43.93902" lon="5.18259">
        <ele>558</ele>
        <time>2011-01-14T11:28:39Z</time>
      </trkpt>
      <trkpt lat="43.9389" lon="5.18257">
        <ele>558</ele>
        <time>2011-01-14T11:28:50Z</time>
      </trkpt>
      <trkpt lat="43.9388" lon="5.18254">
        <ele>558</ele>
        <time>2011-01-14T11:29:00Z</time>
      </trkpt>
      <trkpt lat="43.93869" lon="5.18253">
        <ele>558</ele>
        <time>2011-01-14T11:29:11Z</time>
      </trkpt>
      <trkpt lat="43.93861" lon="5.18246">
        <ele>558</ele>
        <time>2011-01-14T11:29:21Z</time>
      </trkpt>
      <trkpt lat="43.93854" lon="5.18242">
        <ele>556</ele>
        <time>2011-01-14T11:29:31Z</time>
      </trkpt>
      <trkpt lat="43.93844" lon="5.18239">
        <ele>553</ele>
        <time>2011-01-14T11:29:42Z</time>
      </trkpt>
      <trkpt lat="43.93832" lon="5.18235">
        <ele>552</ele>
        <time>2011-01-14T11:29:52Z</time>
      </trkpt>
      <trkpt lat="43.93821" lon="5.18231">
        <ele>551</ele>
        <time>2011-01-14T11:30:04Z</time>
      </trkpt>
      <trkpt lat="43.93811" lon="5.18231">
        <ele>545</ele>
        <time>2011-01-14T11:30:14Z</time>
      </trkpt>
      <trkpt lat="43.93799" lon="5.18234">
        <ele>544</ele>
        <time>2011-01-14T11:30:24Z</time>
      </trkpt>
      <trkpt lat="43.93788" lon="5.18232">
        <ele>544</ele>
        <time>2011-01-14T11:30:34Z</time>
      </trkpt>
      <trkpt lat="43.93776" lon="5.1823">
        <ele>544</ele>
        <time>2011-01-14T11:30:45Z</time>
      </trkpt>
      <trkpt lat="43.93765" lon="5.18228">
        <ele>543</ele>
        <time>2011-01-14T11:30:55Z</time>
      </trkpt>
      <trkpt lat="43.93754" lon="5.1822">
        <ele>543</ele>
        <time>2011-01-14T11:31:06Z</time>
      </trkpt>
      <trkpt lat="43.93744" lon="5.18216">
        <ele>543</ele>
        <time>2011-01-14T11:31:16Z</time>
      </trkpt>
      <trkpt lat="43.93733" lon="5.18215">
        <ele>543</ele>
        <time>2011-01-14T11:31:26Z</time>
      </trkpt>
      <trkpt lat="43.9372" lon="5.18215">
        <ele>543</ele>
        <time>2011-01-14T11:31:36Z</time>
      </trkpt>
      <trkpt lat="43.93708" lon="5.18214">
        <ele>542</ele>
        <time>2011-01-14T11:31:46Z</time>
      </trkpt>
      <trkpt lat="43.93697" lon="5.18213">
        <ele>541</ele>
        <time>2011-01-14T11:31:57Z</time>
      </trkpt>
      <trkpt lat="43.93685" lon="5.18215">
        <ele>540</ele>
        <time>2011-01-14T11:32:07Z</time>
      </trkpt>
      <trkpt lat="43.93674" lon="5.18214">
        <ele>538</ele>
        <time>2011-01-14T11:32:17Z</time>
      </trkpt>
      <trkpt lat="43.93663" lon="5.18209">
        <ele>536</ele>
        <time>2011-01-14T11:32:28Z</time>
      </trkpt>
      <trkpt lat="43.93653" lon="5.18208">
        <ele>534</ele>
        <time>2011-01-14T11:32:38Z</time>
      </trkpt>
      <trkpt lat="43.9364" lon="5.18204">
        <ele>533</ele>
        <time>2011-01-14T11:32:48Z</time>
      </trkpt>
      <trkpt lat="43.9363" lon="5.18201">
        <ele>533</ele>
        <time>2011-01-14T11:32:58Z</time>
      </trkpt>
      <trkpt lat="43.9362" lon="5.18199">
        <ele>530</ele>
        <time>2011-01-14T11:33:08Z</time>
      </trkpt>
      <trkpt lat="43.93611" lon="5.18195">
        <ele>529</ele>
        <time>2011-01-14T11:33:18Z</time>
      </trkpt>
      <trkpt lat="43.936" lon="5.18191">
        <ele>527</ele>
        <time>2011-01-14T11:33:29Z</time>
      </trkpt>
      <trkpt lat="43.9359" lon="5.18189">
        <ele>526</ele>
        <time>2011-01-14T11:33:40Z</time>
      </trkpt>
      <trkpt lat="43.9358" lon="5.18184">
        <ele>525</ele>
        <time>2011-01-14T11:33:51Z</time>
      </trkpt>
      <trkpt lat="43.93569" lon="5.18184">
        <ele>522</ele>
        <time>2011-01-14T11:34:02Z</time>
      </trkpt>
      <trkpt lat="43.93558" lon="5.18184">
        <ele>520</ele>
        <time>2011-01-14T11:34:12Z</time>
      </trkpt>
      <trkpt lat="43.93555" lon="5.18184">
        <ele>518</ele>
        <time>2011-01-14T11:34:39Z</time>
      </trkpt>
      <trkpt lat="43.93553" lon="5.1818">
        <ele>518</ele>
        <time>2011-01-14T11:34:49Z</time>
      </trkpt>
      <trkpt lat="43.93552" lon="5.18179">
        <ele>518</ele>
        <time>2011-01-14T11:35:06Z</time>
      </trkpt>
      <trkpt lat="43.93549" lon="5.18178">
        <ele>517</ele>
        <time>2011-01-14T11:35:16Z</time>
      </trkpt>
      <trkpt lat="43.93547" lon="5.18179">
        <ele>516</ele>
        <time>2011-01-14T11:35:27Z</time>
      </trkpt>
      <trkpt lat="43.93549" lon="5.18179">
        <ele>516</ele>
        <time>2011-01-14T11:35:38Z</time>
      </trkpt>
      <trkpt lat="43.9355" lon="5.18176">
        <ele>516</ele>
        <time>2011-01-14T11:35:50Z</time>
      </trkpt>
      <trkpt lat="43.93554" lon="5.18166">
        <ele>516</ele>
        <time>2011-01-14T11:36:00Z</time>
      </trkpt>
      <trkpt lat="43.93552" lon="5.18154">
        <ele>516</ele>
        <time>2011-01-14T11:36:11Z</time>
      </trkpt>
      <trkpt lat="43.93549" lon="5.18142">
        <ele>515</ele>
        <time>2011-01-14T11:36:21Z</time>
      </trkpt>
      <trkpt lat="43.93542" lon="5.1813">
        <ele>514</ele>
        <time>2011-01-14T11:36:33Z</time>
      </trkpt>
      <trkpt lat="43.93537" lon="5.1812">
        <ele>513</ele>
        <time>2011-01-14T11:36:43Z</time>
      </trkpt>
      <trkpt lat="43.93532" lon="5.18108">
        <ele>513</ele>
        <time>2011-01-14T11:36:54Z</time>
      </trkpt>
      <trkpt lat="43.93534" lon="5.18096">
        <ele>512</ele>
        <time>2011-01-14T11:37:05Z</time>
      </trkpt>
      <trkpt lat="43.93524" lon="5.18087">
        <ele>512</ele>
        <time>2011-01-14T11:37:16Z</time>
      </trkpt>
      <trkpt lat="43.93514" lon="5.1808">
        <ele>512</ele>
        <time>2011-01-14T11:37:26Z</time>
      </trkpt>
      <trkpt lat="43.93511" lon="5.18072">
        <ele>512</ele>
        <time>2011-01-14T11:37:36Z</time>
      </trkpt>
      <trkpt lat="43.93499" lon="5.18069">
        <ele>512</ele>
        <time>2011-01-14T11:37:46Z</time>
      </trkpt>
      <trkpt lat="43.9349" lon="5.18064">
        <ele>512</ele>
        <time>2011-01-14T11:37:56Z</time>
      </trkpt>
      <trkpt lat="43.93483" lon="5.18055">
        <ele>513</ele>
        <time>2011-01-14T11:38:06Z</time>
      </trkpt>
      <trkpt lat="43.93475" lon="5.18047">
        <ele>513</ele>
        <time>2011-01-14T11:38:16Z</time>
      </trkpt>
      <trkpt lat="43.93467" lon="5.18039">
        <ele>513</ele>
        <time>2011-01-14T11:38:27Z</time>
      </trkpt>
      <trkpt lat="43.93458" lon="5.18029">
        <ele>511</ele>
        <time>2011-01-14T11:38:38Z</time>
      </trkpt>
      <trkpt lat="43.93446" lon="5.18016">
        <ele>511</ele>
        <time>2011-01-14T11:38:48Z</time>
      </trkpt>
      <trkpt lat="43.93435" lon="5.18021">
        <ele>511</ele>
        <time>2011-01-14T11:38:58Z</time>
      </trkpt>
      <trkpt lat="43.93427" lon="5.18033">
        <ele>512</ele>
        <time>2011-01-14T11:39:09Z</time>
      </trkpt>
      <trkpt lat="43.93419" lon="5.18042">
        <ele>512</ele>
        <time>2011-01-14T11:39:19Z</time>
      </trkpt>
      <trkpt lat="43.93412" lon="5.18053">
        <ele>512</ele>
        <time>2011-01-14T11:39:29Z</time>
      </trkpt>
      <trkpt lat="43.93401" lon="5.18062">
        <ele>512</ele>
        <time>2011-01-14T11:39:40Z</time>
      </trkpt>
      <trkpt lat="43.9339" lon="5.18073">
        <ele>511</ele>
        <time>2011-01-14T11:39:52Z</time>
      </trkpt>
      <trkpt lat="43.93378" lon="5.18079">
        <ele>510</ele>
        <time>2011-01-14T11:40:03Z</time>
      </trkpt>
      <trkpt lat="43.93367" lon="5.18087">
        <ele>508</ele>
        <time>2011-01-14T11:40:13Z</time>
      </trkpt>
      <trkpt lat="43.93358" lon="5.18096">
        <ele>508</ele>
        <time>2011-01-14T11:40:23Z</time>
      </trkpt>
      <trkpt lat="43.93347" lon="5.18106">
        <ele>507</ele>
        <time>2011-01-14T11:40:35Z</time>
      </trkpt>
      <trkpt lat="43.93334" lon="5.18108">
        <ele>504</ele>
        <time>2011-01-14T11:40:47Z</time>
      </trkpt>
      <trkpt lat="43.93322" lon="5.18103">
        <ele>502</ele>
        <time>2011-01-14T11:40:59Z</time>
      </trkpt>
      <trkpt lat="43.93311" lon="5.18097">
        <ele>502</ele>
        <time>2011-01-14T11:41:10Z</time>
      </trkpt>
      <trkpt lat="43.93297" lon="5.18101">
        <ele>502</ele>
        <time>2011-01-14T11:41:22Z</time>
      </trkpt>
      <trkpt lat="43.93286" lon="5.18112">
        <ele>502</ele>
        <time>2011-01-14T11:41:34Z</time>
      </trkpt>
      <trkpt lat="43.93278" lon="5.18121">
        <ele>502</ele>
        <time>2011-01-14T11:41:45Z</time>
      </trkpt>
      <trkpt lat="43.9327" lon="5.18135">
        <ele>502</ele>
        <time>2011-01-14T11:41:57Z</time>
      </trkpt>
      <trkpt lat="43.93261" lon="5.18144">
        <ele>502</ele>
        <time>2011-01-14T11:42:07Z</time>
      </trkpt>
      <trkpt lat="43.93253" lon="5.1815">
        <ele>502</ele>
        <time>2011-01-14T11:42:17Z</time>
      </trkpt>
      <trkpt lat="43.93244" lon="5.18158">
        <ele>500</ele>
        <time>2011-01-14T11:42:27Z</time>
      </trkpt>
      <trkpt lat="43.93235" lon="5.1817">
        <ele>499</ele>
        <time>2011-01-14T11:42:37Z</time>
      </trkpt>
      <trkpt lat="43.93223" lon="5.18183">
        <ele>499</ele>
        <time>2011-01-14T11:42:48Z</time>
      </trkpt>
      <trkpt lat="43.93212" lon="5.18193">
        <ele>497</ele>
        <time>2011-01-14T11:43:00Z</time>
      </trkpt>
      <trkpt lat="43.93203" lon="5.18201">
        <ele>494</ele>
        <time>2011-01-14T11:43:12Z</time>
      </trkpt>
      <trkpt lat="43.93193" lon="5.18212">
        <ele>491</ele>
        <time>2011-01-14T11:43:23Z</time>
      </trkpt>
      <trkpt lat="43.93184" lon="5.18219">
        <ele>490</ele>
        <time>2011-01-14T11:43:34Z</time>
      </trkpt>
      <trkpt lat="43.93174" lon="5.18226">
        <ele>490</ele>
        <time>2011-01-14T11:43:45Z</time>
      </trkpt>
      <trkpt lat="43.93163" lon="5.1823">
        <ele>489</ele>
        <time>2011-01-14T11:43:55Z</time>
      </trkpt>
      <trkpt lat="43.93152" lon="5.18235">
        <ele>488</ele>
        <time>2011-01-14T11:44:06Z</time>
      </trkpt>
      <trkpt lat="43.93142" lon="5.18233">
        <ele>486</ele>
        <time>2011-01-14T11:44:16Z</time>
      </trkpt>
      <trkpt lat="43.93137" lon="5.18232">
        <ele>486</ele>
        <time>2011-01-14T11:44:26Z</time>
      </trkpt>
      <trkpt lat="43.93127" lon="5.18228">
        <ele>486</ele>
        <time>2011-01-14T11:44:37Z</time>
      </trkpt>
      <trkpt lat="43.93118" lon="5.18227">
        <ele>486</ele>
        <time>2011-01-14T11:44:47Z</time>
      </trkpt>
      <trkpt lat="43.93105" lon="5.18227">
        <ele>485</ele>
        <time>2011-01-14T11:44:58Z</time>
      </trkpt>
      <trkpt lat="43.93096" lon="5.18223">
        <ele>484</ele>
        <time>2011-01-14T11:45:08Z</time>
      </trkpt>
      <trkpt lat="43.93084" lon="5.18219">
        <ele>482</ele>
        <time>2011-01-14T11:45:18Z</time>
      </trkpt>
      <trkpt lat="43.93072" lon="5.18216">
        <ele>481</ele>
        <time>2011-01-14T11:45:28Z</time>
      </trkpt>
      <trkpt lat="43.9306" lon="5.18217">
        <ele>480</ele>
        <time>2011-01-14T11:45:38Z</time>
      </trkpt>
      <trkpt lat="43.93049" lon="5.18217">
        <ele>479</ele>
        <time>2011-01-14T11:45:48Z</time>
      </trkpt>
      <trkpt lat="43.93037" lon="5.18218">
        <ele>478</ele>
        <time>2011-01-14T11:45:59Z</time>
      </trkpt>
      <trkpt lat="43.93027" lon="5.18222">
        <ele>476</ele>
        <time>2011-01-14T11:46:10Z</time>
      </trkpt>
      <trkpt lat="43.93019" lon="5.18224">
        <ele>474</ele>
        <time>2011-01-14T11:46:20Z</time>
      </trkpt>
      <trkpt lat="43.9301" lon="5.18226">
        <ele>472</ele>
        <time>2011-01-14T11:46:30Z</time>
      </trkpt>
      <trkpt lat="43.92999" lon="5.18224">
        <ele>470</ele>
        <time>2011-01-14T11:46:41Z</time>
      </trkpt>
      <trkpt lat="43.92986" lon="5.18223">
        <ele>468</ele>
        <time>2011-01-14T11:46:52Z</time>
      </trkpt>
      <trkpt lat="43.92978" lon="5.18222">
        <ele>467</ele>
        <time>2011-01-14T11:47:04Z</time>
      </trkpt>
      <trkpt lat="43.92968" lon="5.18217">
        <ele>466</ele>
        <time>2011-01-14T11:47:14Z</time>
      </trkpt>
      <trkpt lat="43.92958" lon="5.18208">
        <ele>465</ele>
        <time>2011-01-14T11:47:25Z</time>
      </trkpt>
      <trkpt lat="43.92948" lon="5.18197">
        <ele>465</ele>
        <time>2011-01-14T11:47:37Z</time>
      </trkpt>
      <trkpt lat="43.92939" lon="5.18187">
        <ele>465</ele>
        <time>2011-01-14T11:47:48Z</time>
      </trkpt>
      <trkpt lat="43.92929" lon="5.18178">
        <ele>462</ele>
        <time>2011-01-14T11:47:59Z</time>
      </trkpt>
      <trkpt lat="43.92916" lon="5.18168">
        <ele>459</ele>
        <time>2011-01-14T11:48:10Z</time>
      </trkpt>
      <trkpt lat="43.92908" lon="5.18157">
        <ele>458</ele>
        <time>2011-01-14T11:48:20Z</time>
      </trkpt>
      <trkpt lat="43.92901" lon="5.18147">
        <ele>454</ele>
        <time>2011-01-14T11:48:31Z</time>
      </trkpt>
      <trkpt lat="43.9289" lon="5.1814">
        <ele>451</ele>
        <time>2011-01-14T11:48:42Z</time>
      </trkpt>
      <trkpt lat="43.92878" lon="5.18135">
        <ele>449</ele>
        <time>2011-01-14T11:48:53Z</time>
      </trkpt>
      <trkpt lat="43.92865" lon="5.18129">
        <ele>449</ele>
        <time>2011-01-14T11:49:04Z</time>
      </trkpt>
      <trkpt lat="43.92856" lon="5.18122">
        <ele>450</ele>
        <time>2011-01-14T11:49:14Z</time>
      </trkpt>
      <trkpt lat="43.92846" lon="5.18116">
        <ele>451</ele>
        <time>2011-01-14T11:49:24Z</time>
      </trkpt>
      <trkpt lat="43.92833" lon="5.18114">
        <ele>451</ele>
        <time>2011-01-14T11:49:35Z</time>
      </trkpt>
      <trkpt lat="43.92818" lon="5.18109">
        <ele>452</ele>
        <time>2011-01-14T11:49:46Z</time>
      </trkpt>
      <trkpt lat="43.92804" lon="5.18102">
        <ele>452</ele>
        <time>2011-01-14T11:49:58Z</time>
      </trkpt>
      <trkpt lat="43.92794" lon="5.18094">
        <ele>452</ele>
        <time>2011-01-14T11:50:08Z</time>
      </trkpt>
      <trkpt lat="43.92784" lon="5.18085">
        <ele>453</ele>
        <time>2011-01-14T11:50:18Z</time>
      </trkpt>
      <trkpt lat="43.92773" lon="5.18078">
        <ele>453</ele>
        <time>2011-01-14T11:50:28Z</time>
      </trkpt>
      <trkpt lat="43.9276" lon="5.1807">
        <ele>453</ele>
        <time>2011-01-14T11:50:39Z</time>
      </trkpt>
      <trkpt lat="43.9275" lon="5.18063">
        <ele>453</ele>
        <time>2011-01-14T11:50:49Z</time>
      </trkpt>
      <trkpt lat="43.92741" lon="5.18056">
        <ele>453</ele>
        <time>2011-01-14T11:50:59Z</time>
      </trkpt>
      <trkpt lat="43.92728" lon="5.1805">
        <ele>453</ele>
        <time>2011-01-14T11:51:09Z</time>
      </trkpt>
      <trkpt lat="43.92717" lon="5.18041">
        <ele>453</ele>
        <time>2011-01-14T11:51:20Z</time>
      </trkpt>
      <trkpt lat="43.92706" lon="5.18032">
        <ele>453</ele>
        <time>2011-01-14T11:51:30Z</time>
      </trkpt>
      <trkpt lat="43.92695" lon="5.18022">
        <ele>453</ele>
        <time>2011-01-14T11:51:40Z</time>
      </trkpt>
      <trkpt lat="43.92684" lon="5.18014">
        <ele>453</ele>
        <time>2011-01-14T11:51:51Z</time>
      </trkpt>
      <trkpt lat="43.92674" lon="5.18005">
        <ele>453</ele>
        <time>2011-01-14T11:52:01Z</time>
      </trkpt>
      <trkpt lat="43.92666" lon="5.17996">
        <ele>451</ele>
        <time>2011-01-14T11:52:11Z</time>
      </trkpt>
      <trkpt lat="43.92656" lon="5.17988">
        <ele>450</ele>
        <time>2011-01-14T11:52:21Z</time>
      </trkpt>
      <trkpt lat="43.92649" lon="5.17979">
        <ele>446</ele>
        <time>2011-01-14T11:52:31Z</time>
      </trkpt>
      <trkpt lat="43.92638" lon="5.17969">
        <ele>443</ele>
        <time>2011-01-14T11:52:42Z</time>
      </trkpt>
      <trkpt lat="43.92631" lon="5.17957">
        <ele>443</ele>
        <time>2011-01-14T11:52:52Z</time>
      </trkpt>
      <trkpt lat="43.92624" lon="5.17948">
        <ele>441</ele>
        <time>2011-01-14T11:53:02Z</time>
      </trkpt>
      <trkpt lat="43.92611" lon="5.17945">
        <ele>441</ele>
        <time>2011-01-14T11:53:12Z</time>
      </trkpt>
      <trkpt lat="43.926" lon="5.17941">
        <ele>441</ele>
        <time>2011-01-14T11:53:23Z</time>
      </trkpt>
      <trkpt lat="43.92593" lon="5.17931">
        <ele>441</ele>
        <time>2011-01-14T11:53:33Z</time>
      </trkpt>
      <trkpt lat="43.92585" lon="5.17922">
        <ele>441</ele>
        <time>2011-01-14T11:53:43Z</time>
      </trkpt>
      <trkpt lat="43.92579" lon="5.17914">
        <ele>440</ele>
        <time>2011-01-14T11:53:54Z</time>
      </trkpt>
      <trkpt lat="43.92575" lon="5.17906">
        <ele>439</ele>
        <time>2011-01-14T11:54:05Z</time>
      </trkpt>
      <trkpt lat="43.92573" lon="5.17903">
        <ele>439</ele>
        <time>2011-01-14T11:54:20Z</time>
      </trkpt>
      <trkpt lat="43.92567" lon="5.17899">
        <ele>438</ele>
        <time>2011-01-14T11:54:31Z</time>
      </trkpt>
      <trkpt lat="43.92564" lon="5.1789">
        <ele>435</ele>
        <time>2011-01-14T11:54:41Z</time>
      </trkpt>
      <trkpt lat="43.92556" lon="5.17889">
        <ele>435</ele>
        <time>2011-01-14T11:54:51Z</time>
      </trkpt>
      <trkpt lat="43.92547" lon="5.17885">
        <ele>434</ele>
        <time>2011-01-14T11:55:02Z</time>
      </trkpt>
      <trkpt lat="43.92539" lon="5.17887">
        <ele>433</ele>
        <time>2011-01-14T11:55:12Z</time>
      </trkpt>
      <trkpt lat="43.92531" lon="5.1789">
        <ele>432</ele>
        <time>2011-01-14T11:55:22Z</time>
      </trkpt>
      <trkpt lat="43.92525" lon="5.17889">
        <ele>430</ele>
        <time>2011-01-14T11:55:32Z</time>
      </trkpt>
      <trkpt lat="43.92517" lon="5.17892">
        <ele>429</ele>
        <time>2011-01-14T11:55:42Z</time>
      </trkpt>
      <trkpt lat="43.9251" lon="5.17895">
        <ele>429</ele>
        <time>2011-01-14T11:55:52Z</time>
      </trkpt>
      <trkpt lat="43.92502" lon="5.17902">
        <ele>429</ele>
        <time>2011-01-14T11:56:03Z</time>
      </trkpt>
      <trkpt lat="43.92495" lon="5.179">
        <ele>428</ele>
        <time>2011-01-14T11:56:13Z</time>
      </trkpt>
      <trkpt lat="43.92485" lon="5.17901">
        <ele>428</ele>
        <time>2011-01-14T11:56:23Z</time>
      </trkpt>
      <trkpt lat="43.92475" lon="5.179">
        <ele>427</ele>
        <time>2011-01-14T11:56:34Z</time>
      </trkpt>
      <trkpt lat="43.92466" lon="5.17898">
        <ele>425</ele>
        <time>2011-01-14T11:56:45Z</time>
      </trkpt>
      <trkpt lat="43.92454" lon="5.17893">
        <ele>423</ele>
        <time>2011-01-14T11:56:56Z</time>
      </trkpt>
      <trkpt lat="43.92443" lon="5.17891">
        <ele>422</ele>
        <time>2011-01-14T11:57:07Z</time>
      </trkpt>
      <trkpt lat="43.92432" lon="5.1789">
        <ele>422</ele>
        <time>2011-01-14T11:57:17Z</time>
      </trkpt>
      <trkpt lat="43.92421" lon="5.17893">
        <ele>420</ele>
        <time>2011-01-14T11:57:28Z</time>
      </trkpt>
      <trkpt lat="43.92411" lon="5.17893">
        <ele>418</ele>
        <time>2011-01-14T11:57:38Z</time>
      </trkpt>
      <trkpt lat="43.92399" lon="5.1789">
        <ele>418</ele>
        <time>2011-01-14T11:57:49Z</time>
      </trkpt>
      <trkpt lat="43.92391" lon="5.17886">
        <ele>418</ele>
        <time>2011-01-14T11:57:59Z</time>
      </trkpt>
      <trkpt lat="43.92379" lon="5.17886">
        <ele>417</ele>
        <time>2011-01-14T11:58:09Z</time>
      </trkpt>
      <trkpt lat="43.92368" lon="5.17884">
        <ele>417</ele>
        <time>2011-01-14T11:58:20Z</time>
      </trkpt>
      <trkpt lat="43.9236" lon="5.17886">
        <ele>417</ele>
        <time>2011-01-14T11:58:30Z</time>
      </trkpt>
      <trkpt lat="43.9235" lon="5.17894">
        <ele>416</ele>
        <time>2011-01-14T11:58:40Z</time>
      </trkpt>
      <trkpt lat="43.9234" lon="5.17896">
        <ele>415</ele>
        <time>2011-01-14T11:58:51Z</time>
      </trkpt>
      <trkpt lat="43.92334" lon="5.17903">
        <ele>413</ele>
        <time>2011-01-14T11:59:02Z</time>
      </trkpt>
      <trkpt lat="43.92332" lon="5.17915">
        <ele>411</ele>
        <time>2011-01-14T11:59:12Z</time>
      </trkpt>
      <trkpt lat="43.92336" lon="5.17926">
        <ele>410</ele>
        <time>2011-01-14T11:59:23Z</time>
      </trkpt>
      <trkpt lat="43.92333" lon="5.17932">
        <ele>409</ele>
        <time>2011-01-14T11:59:52Z</time>
      </trkpt>
      <trkpt lat="43.92331" lon="5.17937">
        <ele>409</ele>
        <time>2011-01-14T12:00:06Z</time>
      </trkpt>
      <trkpt lat="43.92328" lon="5.17938">
        <ele>409</ele>
        <time>2011-01-14T12:00:18Z</time>
      </trkpt>
      <trkpt lat="43.92327" lon="5.1794">
        <ele>409</ele>
        <time>2011-01-14T12:00:39Z</time>
      </trkpt>
      <trkpt lat="43.92328" lon="5.17938">
        <ele>409</ele>
        <time>2011-01-14T12:01:01Z</time>
      </trkpt>
      <trkpt lat="43.92329" lon="5.17937">
        <ele>409</ele>
        <time>2011-01-14T12:01:14Z</time>
      </trkpt>
      <trkpt lat="43.9233" lon="5.17936">
        <ele>409</ele>
        <time>2011-01-14T12:01:26Z</time>
      </trkpt>
      <trkpt lat="43.92329" lon="5.17934">
        <ele>408</ele>
        <time>2011-01-14T12:01:36Z</time>
      </trkpt>
      <trkpt lat="43.92329" lon="5.17934">
        <ele>407</ele>
        <time>2011-01-14T12:01:50Z</time>
      </trkpt>
      <trkpt lat="43.92332" lon="5.17934">
        <ele>407</ele>
        <time>2011-01-14T12:02:01Z</time>
      </trkpt>
      <trkpt lat="43.92331" lon="5.17936">
        <ele>407</ele>
        <time>2011-01-14T12:02:26Z</time>
      </trkpt>
      <trkpt lat="43.92331" lon="5.17932">
        <ele>407</ele>
        <time>2011-01-14T12:02:37Z</time>
      </trkpt>
      <trkpt lat="43.92329" lon="5.17937">
        <ele>407</ele>
        <time>2011-01-14T12:02:48Z</time>
      </trkpt>
      <trkpt lat="43.92324" lon="5.17949">
        <ele>407</ele>
        <time>2011-01-14T12:02:59Z</time>
      </trkpt>
      <trkpt lat="43.92324" lon="5.1795">
        <ele>402</ele>
        <time>2011-01-14T12:03:35Z</time>
      </trkpt>
      <trkpt lat="43.92326" lon="5.17947">
        <ele>402</ele>
        <time>2011-01-14T12:03:57Z</time>
      </trkpt>
      <trkpt lat="43.92325" lon="5.17946">
        <ele>402</ele>
        <time>2011-01-14T12:04:13Z</time>
      </trkpt>
      <trkpt lat="43.92326" lon="5.17939">
        <ele>402</ele>
        <time>2011-01-14T12:04:29Z</time>
      </trkpt>
      <trkpt lat="43.92331" lon="5.17933">
        <ele>403</ele>
        <time>2011-01-14T12:04:44Z</time>
      </trkpt>
      <trkpt lat="43.9233" lon="5.17933">
        <ele>403</ele>
        <time>2011-01-14T12:04:56Z</time>
      </trkpt>
      <trkpt lat="43.92326" lon="5.17931">
        <ele>408</ele>
        <time>2011-01-14T12:05:10Z</time>
      </trkpt>
      <trkpt lat="43.92327" lon="5.17934">
        <ele>411</ele>
        <time>2011-01-14T12:05:22Z</time>
      </trkpt>
      <trkpt lat="43.92329" lon="5.17937">
        <ele>406</ele>
        <time>2011-01-14T12:05:35Z</time>
      </trkpt>
      <trkpt lat="43.9233" lon="5.17938">
        <ele>406</ele>
        <time>2011-01-14T12:05:49Z</time>
      </trkpt>
      <trkpt lat="43.92328" lon="5.17936">
        <ele>406</ele>
        <time>2011-01-14T12:06:20Z</time>
      </trkpt>
      <trkpt lat="43.92329" lon="5.17937">
        <ele>406</ele>
        <time>2011-01-14T12:06:30Z</time>
      </trkpt>
      <trkpt lat="43.92329" lon="5.17938">
        <ele>406</ele>
        <time>2011-01-14T12:06:43Z</time>
      </trkpt>
      <trkpt lat="43.92327" lon="5.17937">
        <ele>404</ele>
        <time>2011-01-14T12:07:12Z</time>
      </trkpt>
      <trkpt lat="43.92329" lon="5.17937">
        <ele>404</ele>
        <time>2011-01-14T12:07:29Z</time>
      </trkpt>
      <trkpt lat="43.92328" lon="5.17936">
        <ele>404</ele>
        <time>2011-01-14T12:07:44Z</time>
      </trkpt>
      <trkpt lat="43.92328" lon="5.17934">
        <ele>401</ele>
        <time>2011-01-14T12:07:54Z</time>
      </trkpt>
      <trkpt lat="43.92327" lon="5.17937">
        <ele>401</ele>
        <time>2011-01-14T12:08:10Z</time>
      </trkpt>
      <trkpt lat="43.92326" lon="5.17935">
        <ele>401</ele>
        <time>2011-01-14T12:08:22Z</time>
      </trkpt>
      <trkpt lat="43.92326" lon="5.17933">
        <ele>401</ele>
        <time>2011-01-14T12:08:35Z</time>
      </trkpt>
      <trkpt lat="43.92329" lon="5.17936">
        <ele>401</ele>
        <time>2011-01-14T12:08:46Z</time>
      </trkpt>
      <trkpt lat="43.92329" lon="5.17936">
        <ele>401</ele>
        <time>2011-01-14T12:08:57Z</time>
      </trkpt>
      <trkpt lat="43.92329" lon="5.17934">
        <ele>401</ele>
        <time>2011-01-14T12:09:25Z</time>
      </trkpt>
      <trkpt lat="43.92331" lon="5.17934">
        <ele>401</ele>
        <time>2011-01-14T12:09:35Z</time>
      </trkpt>
      <trkpt lat="43.92332" lon="5.17933">
        <ele>403</ele>
        <time>2011-01-14T12:09:47Z</time>
      </trkpt>
      <trkpt lat="43.92334" lon="5.17931">
        <ele>404</ele>
        <time>2011-01-14T12:09:59Z</time>
      </trkpt>
      <trkpt lat="43.92337" lon="5.17939">
        <ele>404</ele>
        <time>2011-01-14T12:10:11Z</time>
      </trkpt>
      <trkpt lat="43.9234" lon="5.17949">
        <ele>404</ele>
        <time>2011-01-14T12:10:24Z</time>
      </trkpt>
      <trkpt lat="43.92339" lon="5.1796">
        <ele>404</ele>
        <time>2011-01-14T12:10:35Z</time>
      </trkpt>
      <trkpt lat="43.9234" lon="5.17972">
        <ele>404</ele>
        <time>2011-01-14T12:10:45Z</time>
      </trkpt>
      <trkpt lat="43.92342" lon="5.17984">
        <ele>404</ele>
        <time>2011-01-14T12:10:55Z</time>
      </trkpt>
      <trkpt lat="43.92347" lon="5.17993">
        <ele>404</ele>
        <time>2011-01-14T12:11:05Z</time>
      </trkpt>
      <trkpt lat="43.92353" lon="5.18004">
        <ele>404</ele>
        <time>2011-01-14T12:11:16Z</time>
      </trkpt>
      <trkpt lat="43.92358" lon="5.18016">
        <ele>403</ele>
        <time>2011-01-14T12:11:27Z</time>
      </trkpt>
      <trkpt lat="43.92361" lon="5.18028">
        <ele>403</ele>
        <time>2011-01-14T12:11:37Z</time>
      </trkpt>
      <trkpt lat="43.92366" lon="5.18039">
        <ele>402</ele>
        <time>2011-01-14T12:11:47Z</time>
      </trkpt>
      <trkpt lat="43.92373" lon="5.18051">
        <ele>402</ele>
        <time>2011-01-14T12:11:58Z</time>
      </trkpt>
      <trkpt lat="43.92378" lon="5.18066">
        <ele>402</ele>
        <time>2011-01-14T12:12:09Z</time>
      </trkpt>
      <trkpt lat="43.92382" lon="5.18081">
        <ele>402</ele>
        <time>2011-01-14T12:12:19Z</time>
      </trkpt>
      <trkpt lat="43.92389" lon="5.18095">
        <ele>402</ele>
        <time>2011-01-14T12:12:30Z</time>
      </trkpt>
      <trkpt lat="43.92394" lon="5.18108">
        <ele>402</ele>
        <time>2011-01-14T12:12:40Z</time>
      </trkpt>
      <trkpt lat="43.924" lon="5.18122">
        <ele>402</ele>
        <time>2011-01-14T12:12:50Z</time>
      </trkpt>
      <trkpt lat="43.92411" lon="5.18139">
        <ele>402</ele>
        <time>2011-01-14T12:13:01Z</time>
      </trkpt>
      <trkpt lat="43.92419" lon="5.18149">
        <ele>402</ele>
        <time>2011-01-14T12:13:12Z</time>
      </trkpt>
      <trkpt lat="43.92427" lon="5.18158">
        <ele>402</ele>
        <time>2011-01-14T12:13:22Z</time>
      </trkpt>
      <trkpt lat="43.92437" lon="5.18164">
        <ele>402</ele>
        <time>2011-01-14T12:13:32Z</time>
      </trkpt>
      <trkpt lat="43.9245" lon="5.18171">
        <ele>402</ele>
        <time>2011-01-14T12:13:43Z</time>
      </trkpt>
      <trkpt lat="43.92463" lon="5.18174">
        <ele>402</ele>
        <time>2011-01-14T12:13:53Z</time>
      </trkpt>
      <trkpt lat="43.92476" lon="5.18171">
        <ele>404</ele>
        <time>2011-01-14T12:14:04Z</time>
      </trkpt>
      <trkpt lat="43.92487" lon="5.18166">
        <ele>407</ele>
        <time>2011-01-14T12:14:16Z</time>
      </trkpt>
      <trkpt lat="43.92494" lon="5.18162">
        <ele>410</ele>
        <time>2011-01-14T12:14:26Z</time>
      </trkpt>
      <trkpt lat="43.92504" lon="5.18158">
        <ele>414</ele>
        <time>2011-01-14T12:14:36Z</time>
      </trkpt>
      <trkpt lat="43.92513" lon="5.1816">
        <ele>415</ele>
        <time>2011-01-14T12:14:46Z</time>
      </trkpt>
      <trkpt lat="43.92524" lon="5.18166">
        <ele>415</ele>
        <time>2011-01-14T12:14:57Z</time>
      </trkpt>
      <trkpt lat="43.92532" lon="5.18172">
        <ele>415</ele>
        <time>2011-01-14T12:15:07Z</time>
      </trkpt>
      <trkpt lat="43.92541" lon="5.1818">
        <ele>415</ele>
        <time>2011-01-14T12:15:17Z</time>
      </trkpt>
      <trkpt lat="43.92553" lon="5.18189">
        <ele>415</ele>
        <time>2011-01-14T12:15:27Z</time>
      </trkpt>
      <trkpt lat="43.92563" lon="5.18199">
        <ele>415</ele>
        <time>2011-01-14T12:15:37Z</time>
      </trkpt>
      <trkpt lat="43.92568" lon="5.1821">
        <ele>413</ele>
        <time>2011-01-14T12:15:47Z</time>
      </trkpt>
      <trkpt lat="43.92575" lon="5.18222">
        <ele>410</ele>
        <time>2011-01-14T12:15:58Z</time>
      </trkpt>
      <trkpt lat="43.92585" lon="5.18232">
        <ele>409</ele>
        <time>2011-01-14T12:16:09Z</time>
      </trkpt>
      <trkpt lat="43.92594" lon="5.1824">
        <ele>409</ele>
        <time>2011-01-14T12:16:19Z</time>
      </trkpt>
      <trkpt lat="43.92604" lon="5.18248">
        <ele>409</ele>
        <time>2011-01-14T12:16:29Z</time>
      </trkpt>
      <trkpt lat="43.92613" lon="5.18257">
        <ele>409</ele>
        <time>2011-01-14T12:16:39Z</time>
      </trkpt>
      <trkpt lat="43.92621" lon="5.18269">
        <ele>408</ele>
        <time>2011-01-14T12:16:50Z</time>
      </trkpt>
      <trkpt lat="43.92631" lon="5.18278">
        <ele>406</ele>
        <time>2011-01-14T12:17:00Z</time>
      </trkpt>
      <trkpt lat="43.92638" lon="5.18288">
        <ele>404</ele>
        <time>2011-01-14T12:17:10Z</time>
      </trkpt>
      <trkpt lat="43.92648" lon="5.18299">
        <ele>402</ele>
        <time>2011-01-14T12:17:20Z</time>
      </trkpt>
      <trkpt lat="43.92656" lon="5.18307">
        <ele>399</ele>
        <time>2011-01-14T12:17:30Z</time>
      </trkpt>
      <trkpt lat="43.92666" lon="5.18314">
        <ele>399</ele>
        <time>2011-01-14T12:17:40Z</time>
      </trkpt>
      <trkpt lat="43.92678" lon="5.18318">
        <ele>399</ele>
        <time>2011-01-14T12:17:50Z</time>
      </trkpt>
      <trkpt lat="43.92692" lon="5.1832">
        <ele>399</ele>
        <time>2011-01-14T12:18:01Z</time>
      </trkpt>
      <trkpt lat="43.92706" lon="5.1832">
        <ele>399</ele>
        <time>2011-01-14T12:18:11Z</time>
      </trkpt>
      <trkpt lat="43.92718" lon="5.18324">
        <ele>399</ele>
        <time>2011-01-14T12:18:21Z</time>
      </trkpt>
      <trkpt lat="43.9273" lon="5.18328">
        <ele>399</ele>
        <time>2011-01-14T12:18:32Z</time>
      </trkpt>
      <trkpt lat="43.92741" lon="5.18334">
        <ele>400</ele>
        <time>2011-01-14T12:18:42Z</time>
      </trkpt>
      <trkpt lat="43.92753" lon="5.18341">
        <ele>402</ele>
        <time>2011-01-14T12:18:53Z</time>
      </trkpt>
      <trkpt lat="43.92765" lon="5.18347">
        <ele>402</ele>
        <time>2011-01-14T12:19:03Z</time>
      </trkpt>
      <trkpt lat="43.92774" lon="5.18355">
        <ele>402</ele>
        <time>2011-01-14T12:19:14Z</time>
      </trkpt>
      <trkpt lat="43.92783" lon="5.18366">
        <ele>402</ele>
        <time>2011-01-14T12:19:24Z</time>
      </trkpt>
      <trkpt lat="43.92791" lon="5.18378">
        <ele>402</ele>
        <time>2011-01-14T12:19:35Z</time>
      </trkpt>
      <trkpt lat="43.92802" lon="5.18385">
        <ele>402</ele>
        <time>2011-01-14T12:19:45Z</time>
      </trkpt>
      <trkpt lat="43.92813" lon="5.18387">
        <ele>403</ele>
        <time>2011-01-14T12:19:55Z</time>
      </trkpt>
      <trkpt lat="43.92826" lon="5.18393">
        <ele>404</ele>
        <time>2011-01-14T12:20:06Z</time>
      </trkpt>
      <trkpt lat="43.92839" lon="5.18398">
        <ele>406</ele>
        <time>2011-01-14T12:20:16Z</time>
      </trkpt>
      <trkpt lat="43.9285" lon="5.18403">
        <ele>406</ele>
        <time>2011-01-14T12:20:26Z</time>
      </trkpt>
      <trkpt lat="43.92862" lon="5.18408">
        <ele>406</ele>
        <time>2011-01-14T12:20:36Z</time>
      </trkpt>
      <trkpt lat="43.92873" lon="5.18415">
        <ele>406</ele>
        <time>2011-01-14T12:20:46Z</time>
      </trkpt>
      <trkpt lat="43.92885" lon="5.18422">
        <ele>406</ele>
        <time>2011-01-14T12:20:56Z</time>
      </trkpt>
      <trkpt lat="43.92897" lon="5.18432">
        <ele>406</ele>
        <time>2011-01-14T12:21:07Z</time>
      </trkpt>
      <trkpt lat="43.92907" lon="5.18442">
        <ele>407</ele>
        <time>2011-01-14T12:21:17Z</time>
      </trkpt>
      <trkpt lat="43.92919" lon="5.18447">
        <ele>407</ele>
        <time>2011-01-14T12:21:27Z</time>
      </trkpt>
      <trkpt lat="43.92931" lon="5.18448">
        <ele>408</ele>
        <time>2011-01-14T12:21:37Z</time>
      </trkpt>
      <trkpt lat="43.92944" lon="5.18448">
        <ele>410</ele>
        <time>2011-01-14T12:21:47Z</time>
      </trkpt>
      <trkpt lat="43.92955" lon="5.18448">
        <ele>411</ele>
        <time>2011-01-14T12:21:57Z</time>
      </trkpt>
      <trkpt lat="43.92968" lon="5.18448">
        <ele>412</ele>
        <time>2011-01-14T12:22:07Z</time>
      </trkpt>
      <trkpt lat="43.9298" lon="5.18447">
        <ele>414</ele>
        <time>2011-01-14T12:22:17Z</time>
      </trkpt>
      <trkpt lat="43.92993" lon="5.18447">
        <ele>414</ele>
        <time>2011-01-14T12:22:27Z</time>
      </trkpt>
      <trkpt lat="43.93005" lon="5.18447">
        <ele>416</ele>
        <time>2011-01-14T12:22:37Z</time>
      </trkpt>
      <trkpt lat="43.93018" lon="5.1845">
        <ele>417</ele>
        <time>2011-01-14T12:22:47Z</time>
      </trkpt>
      <trkpt lat="43.93031" lon="5.18452">
        <ele>418</ele>
        <time>2011-01-14T12:22:58Z</time>
      </trkpt>
      <trkpt lat="43.93043" lon="5.18455">
        <ele>418</ele>
        <time>2011-01-14T12:23:08Z</time>
      </trkpt>
      <trkpt lat="43.93055" lon="5.18457">
        <ele>419</ele>
        <time>2011-01-14T12:23:18Z</time>
      </trkpt>
      <trkpt lat="43.93068" lon="5.1846">
        <ele>419</ele>
        <time>2011-01-14T12:23:29Z</time>
      </trkpt>
      <trkpt lat="43.93081" lon="5.18463">
        <ele>419</ele>
        <time>2011-01-14T12:23:39Z</time>
      </trkpt>
      <trkpt lat="43.93093" lon="5.18469">
        <ele>419</ele>
        <time>2011-01-14T12:23:50Z</time>
      </trkpt>
      <trkpt lat="43.93104" lon="5.18474">
        <ele>419</ele>
        <time>2011-01-14T12:24:00Z</time>
      </trkpt>
      <trkpt lat="43.93116" lon="5.18468">
        <ele>419</ele>
        <time>2011-01-14T12:24:10Z</time>
      </trkpt>
      <trkpt lat="43.93125" lon="5.18458">
        <ele>419</ele>
        <time>2011-01-14T12:24:20Z</time>
      </trkpt>
      <trkpt lat="43.93132" lon="5.18445">
        <ele>419</ele>
        <time>2011-01-14T12:24:30Z</time>
      </trkpt>
      <trkpt lat="43.9314" lon="5.18432">
        <ele>419</ele>
        <time>2011-01-14T12:24:40Z</time>
      </trkpt>
      <trkpt lat="43.9315" lon="5.18429">
        <ele>419</ele>
        <time>2011-01-14T12:24:50Z</time>
      </trkpt>
      <trkpt lat="43.93159" lon="5.18437">
        <ele>419</ele>
        <time>2011-01-14T12:25:00Z</time>
      </trkpt>
      <trkpt lat="43.93167" lon="5.18446">
        <ele>420</ele>
        <time>2011-01-14T12:25:10Z</time>
      </trkpt>
      <trkpt lat="43.93176" lon="5.18458">
        <ele>420</ele>
        <time>2011-01-14T12:25:20Z</time>
      </trkpt>
      <trkpt lat="43.93184" lon="5.1847">
        <ele>420</ele>
        <time>2011-01-14T12:25:30Z</time>
      </trkpt>
      <trkpt lat="43.93193" lon="5.18481">
        <ele>420</ele>
        <time>2011-01-14T12:25:41Z</time>
      </trkpt>
      <trkpt lat="43.93206" lon="5.18486">
        <ele>420</ele>
        <time>2011-01-14T12:25:51Z</time>
      </trkpt>
      <trkpt lat="43.93215" lon="5.18499">
        <ele>420</ele>
        <time>2011-01-14T12:26:02Z</time>
      </trkpt>
      <trkpt lat="43.93217" lon="5.18516">
        <ele>420</ele>
        <time>2011-01-14T12:26:12Z</time>
      </trkpt>
      <trkpt lat="43.93218" lon="5.18534">
        <ele>420</ele>
        <time>2011-01-14T12:26:22Z</time>
      </trkpt>
      <trkpt lat="43.93219" lon="5.18551">
        <ele>419</ele>
        <time>2011-01-14T12:26:32Z</time>
      </trkpt>
      <trkpt lat="43.93223" lon="5.18568">
        <ele>419</ele>
        <time>2011-01-14T12:26:42Z</time>
      </trkpt>
      <trkpt lat="43.93229" lon="5.18581">
        <ele>417</ele>
        <time>2011-01-14T12:26:52Z</time>
      </trkpt>
      <trkpt lat="43.93235" lon="5.18595">
        <ele>414</ele>
        <time>2011-01-14T12:27:03Z</time>
      </trkpt>
      <trkpt lat="43.93244" lon="5.18603">
        <ele>414</ele>
        <time>2011-01-14T12:27:13Z</time>
      </trkpt>
      <trkpt lat="43.93258" lon="5.18608">
        <ele>414</ele>
        <time>2011-01-14T12:27:23Z</time>
      </trkpt>
      <trkpt lat="43.93267" lon="5.18615">
        <ele>414</ele>
        <time>2011-01-14T12:27:33Z</time>
      </trkpt>
      <trkpt lat="43.93275" lon="5.18626">
        <ele>414</ele>
        <time>2011-01-14T12:27:43Z</time>
      </trkpt>
      <trkpt lat="43.93284" lon="5.18638">
        <ele>414</ele>
        <time>2011-01-14T12:27:53Z</time>
      </trkpt>
      <trkpt lat="43.93295" lon="5.18647">
        <ele>414</ele>
        <time>2011-01-14T12:28:03Z</time>
      </trkpt>
      <trkpt lat="43.93307" lon="5.18654">
        <ele>414</ele>
        <time>2011-01-14T12:28:13Z</time>
      </trkpt>
      <trkpt lat="43.93319" lon="5.18659">
        <ele>414</ele>
        <time>2011-01-14T12:28:23Z</time>
      </trkpt>
      <trkpt lat="43.9333" lon="5.18668">
        <ele>414</ele>
        <time>2011-01-14T12:28:34Z</time>
      </trkpt>
      <trkpt lat="43.93341" lon="5.18679">
        <ele>414</ele>
        <time>2011-01-14T12:28:45Z</time>
      </trkpt>
      <trkpt lat="43.93351" lon="5.18689">
        <ele>415</ele>
        <time>2011-01-14T12:28:56Z</time>
      </trkpt>
      <trkpt lat="43.93361" lon="5.187">
        <ele>416</ele>
        <time>2011-01-14T12:29:07Z</time>
      </trkpt>
      <trkpt lat="43.93367" lon="5.18711">
        <ele>416</ele>
        <time>2011-01-14T12:29:17Z</time>
      </trkpt>
      <trkpt lat="43.93372" lon="5.18723">
        <ele>411</ele>
        <time>2011-01-14T12:29:27Z</time>
      </trkpt>
      <trkpt lat="43.93378" lon="5.18735">
        <ele>409</ele>
        <time>2011-01-14T12:29:37Z</time>
      </trkpt>
      <trkpt lat="43.93379" lon="5.18747">
        <ele>403</ele>
        <time>2011-01-14T12:29:47Z</time>
      </trkpt>
      <trkpt lat="43.93371" lon="5.18755">
        <ele>403</ele>
        <time>2011-01-14T12:29:57Z</time>
      </trkpt>
      <trkpt lat="43.93363" lon="5.18755">
        <ele>402</ele>
        <time>2011-01-14T12:30:07Z</time>
      </trkpt>
      <trkpt lat="43.93352" lon="5.1876">
        <ele>400</ele>
        <time>2011-01-14T12:30:18Z</time>
      </trkpt>
      <trkpt lat="43.9334" lon="5.18763">
        <ele>399</ele>
        <time>2011-01-14T12:30:29Z</time>
      </trkpt>
      <trkpt lat="43.93337" lon="5.18766">
        <ele>399</ele>
        <time>2011-01-14T12:30:42Z</time>
      </trkpt>
      <trkpt lat="43.93329" lon="5.18766">
        <ele>395</ele>
        <time>2011-01-14T12:30:52Z</time>
      </trkpt>
      <trkpt lat="43.9333" lon="5.18775">
        <ele>393</ele>
        <time>2011-01-14T12:31:04Z</time>
      </trkpt>
      <trkpt lat="43.93333" lon="5.18789">
        <ele>391</ele>
        <time>2011-01-14T12:31:14Z</time>
      </trkpt>
      <trkpt lat="43.93339" lon="5.188">
        <ele>391</ele>
        <time>2011-01-14T12:31:24Z</time>
      </trkpt>
      <trkpt lat="43.93345" lon="5.18812">
        <ele>388</ele>
        <time>2011-01-14T12:31:35Z</time>
      </trkpt>
      <trkpt lat="43.93353" lon="5.18823">
        <ele>385</ele>
        <time>2011-01-14T12:31:45Z</time>
      </trkpt>
      <trkpt lat="43.93361" lon="5.18837">
        <ele>385</ele>
        <time>2011-01-14T12:31:56Z</time>
      </trkpt>
      <trkpt lat="43.93375" lon="5.18845">
        <ele>384</ele>
        <time>2011-01-14T12:32:07Z</time>
      </trkpt>
      <trkpt lat="43.93389" lon="5.18854">
        <ele>384</ele>
        <time>2011-01-14T12:32:18Z</time>
      </trkpt>
      <trkpt lat="43.93397" lon="5.18866">
        <ele>384</ele>
        <time>2011-01-14T12:32:28Z</time>
      </trkpt>
      <trkpt lat="43.9339" lon="5.18876">
        <ele>384</ele>
        <time>2011-01-14T12:32:38Z</time>
      </trkpt>
      <trkpt lat="43.9338" lon="5.18876">
        <ele>384</ele>
        <time>2011-01-14T12:32:48Z</time>
      </trkpt>
      <trkpt lat="43.93367" lon="5.18876">
        <ele>384</ele>
        <time>2011-01-14T12:32:59Z</time>
      </trkpt>
      <trkpt lat="43.93355" lon="5.18877">
        <ele>383</ele>
        <time>2011-01-14T12:33:09Z</time>
      </trkpt>
      <trkpt lat="43.93342" lon="5.18883">
        <ele>383</ele>
        <time>2011-01-14T12:33:20Z</time>
      </trkpt>
      <trkpt lat="43.93332" lon="5.18888">
        <ele>382</ele>
        <time>2011-01-14T12:33:30Z</time>
      </trkpt>
      <trkpt lat="43.93321" lon="5.18893">
        <ele>382</ele>
        <time>2011-01-14T12:33:40Z</time>
      </trkpt>
      <trkpt lat="43.9331" lon="5.18897">
        <ele>382</ele>
        <time>2011-01-14T12:33:50Z</time>
      </trkpt>
      <trkpt lat="43.93298" lon="5.18901">
        <ele>381</ele>
        <time>2011-01-14T12:34:00Z</time>
      </trkpt>
      <trkpt lat="43.93287" lon="5.18905">
        <ele>381</ele>
        <time>2011-01-14T12:34:10Z</time>
      </trkpt>
      <trkpt lat="43.93276" lon="5.18908">
        <ele>380</ele>
        <time>2011-01-14T12:34:20Z</time>
      </trkpt>
      <trkpt lat="43.93266" lon="5.18911">
        <ele>378</ele>
        <time>2011-01-14T12:34:30Z</time>
      </trkpt>
      <trkpt lat="43.93255" lon="5.18914">
        <ele>376</ele>
        <time>2011-01-14T12:34:40Z</time>
      </trkpt>
      <trkpt lat="43.93243" lon="5.18919">
        <ele>376</ele>
        <time>2011-01-14T12:34:50Z</time>
      </trkpt>
      <trkpt lat="43.93233" lon="5.18921">
        <ele>376</ele>
        <time>2011-01-14T12:35:00Z</time>
      </trkpt>
      <trkpt lat="43.93221" lon="5.18923">
        <ele>376</ele>
        <time>2011-01-14T12:35:11Z</time>
      </trkpt>
      <trkpt lat="43.9321" lon="5.18922">
        <ele>376</ele>
        <time>2011-01-14T12:35:21Z</time>
      </trkpt>
      <trkpt lat="43.93198" lon="5.18918">
        <ele>376</ele>
        <time>2011-01-14T12:35:31Z</time>
      </trkpt>
      <trkpt lat="43.93189" lon="5.18916">
        <ele>376</ele>
        <time>2011-01-14T12:35:41Z</time>
      </trkpt>
      <trkpt lat="43.93176" lon="5.18913">
        <ele>376</ele>
        <time>2011-01-14T12:35:51Z</time>
      </trkpt>
      <trkpt lat="43.93163" lon="5.18911">
        <ele>376</ele>
        <time>2011-01-14T12:36:02Z</time>
      </trkpt>
      <trkpt lat="43.93151" lon="5.1891">
        <ele>376</ele>
        <time>2011-01-14T12:36:12Z</time>
      </trkpt>
      <trkpt lat="43.93139" lon="5.1891">
        <ele>376</ele>
        <time>2011-01-14T12:36:22Z</time>
      </trkpt>
      <trkpt lat="43.93127" lon="5.18908">
        <ele>376</ele>
        <time>2011-01-14T12:36:32Z</time>
      </trkpt>
      <trkpt lat="43.93116" lon="5.18907">
        <ele>375</ele>
        <time>2011-01-14T12:36:42Z</time>
      </trkpt>
      <trkpt lat="43.93104" lon="5.18908">
        <ele>375</ele>
        <time>2011-01-14T12:36:53Z</time>
      </trkpt>
      <trkpt lat="43.93097" lon="5.18907">
        <ele>375</ele>
        <time>2011-01-14T12:37:03Z</time>
      </trkpt>
      <trkpt lat="43.93098" lon="5.18909">
        <ele>375</ele>
        <time>2011-01-14T12:37:10Z</time>
      </trkpt>
    </trkseg>
  </trk>
</gpx>